<?xml version="1.0" encoding="UTF-8" standalone="no" ?><gpx xmlns="http://www.topografix.com/GPX/1/1" xmlns:gpxx="http://www.garmin.com/xmlschemas/GpxExtensions/v3" xmlns:wptx1="http://www.garmin.com/xmlschemas/WaypointExtension/v1" xmlns:gpxtpx="http://www.garmin.com/xmlschemas/TrackPointExtension/v1" creator="GuideVTT.com" version="1.1" xmlns:xsi="http://www.w3.org/2001/XMLSchema-instance" xsi:schemaLocation="http://www.topografix.com/GPX/1/1 http://www.topografix.com/GPX/1/1/gpx.xsd http://www.garmin.com/xmlschemas/GpxExtensions/v3 http://www8.garmin.com/xmlschemas/GpxExtensionsv3.xsd http://www.garmin.com/xmlschemas/WaypointExtension/v1 http://www8.garmin.com/xmlschemas/WaypointExtensionv1.xsd http://www.garmin.com/xmlschemas/TrackPointExtension/v1 http://www.garmin.com/xmlschemas/TrackPointExtensionv1.xsd">
<metadata><link href="http://www.garmin.com"><text>Garmin International</text></link><time>2013-06-22T15:13:50Z</time></metadata>
<trk><name>001-bale-laufon.gpx</name><extensions><gpxx:TrackExtension><gpxx:DisplayColor>Cyan</gpxx:DisplayColor></gpxx:TrackExtension></extensions><trkseg>
<trkpt lat="47.54558802" lon="7.59265596"><ele></ele><time>2014-6-19T4:4:54Z</time></trkpt>
<trkpt lat="47.54558902" lon="7.59265504"><ele></ele><time>2014-6-19T4:4:57Z</time></trkpt>
<trkpt lat="47.54559003" lon="7.59265797"><ele></ele><time>2014-6-19T4:5:0Z</time></trkpt>
<trkpt lat="47.54559003" lon="7.59265998"><ele></ele><time>2014-6-19T4:5:3Z</time></trkpt>
<trkpt lat="47.54558399" lon="7.59265303"><ele></ele><time>2014-6-19T4:5:6Z</time></trkpt>
<trkpt lat="47.54557796" lon="7.59265303"><ele></ele><time>2014-6-19T4:5:9Z</time></trkpt>
<trkpt lat="47.54551903" lon="7.59262604"><ele></ele><time>2014-6-19T4:5:12Z</time></trkpt>
<trkpt lat="47.54551300" lon="7.59240601"><ele></ele><time>2014-6-19T4:5:15Z</time></trkpt>
<trkpt lat="47.54554904" lon="7.59228598"><ele></ele><time>2014-6-19T4:5:18Z</time></trkpt>
<trkpt lat="47.54557000" lon="7.59222304"><ele></ele><time>2014-6-19T4:5:21Z</time></trkpt>
<trkpt lat="47.54568399" lon="7.59187703"><ele></ele><time>2014-6-19T4:5:24Z</time></trkpt>
<trkpt lat="47.54561199" lon="7.59155600"><ele></ele><time>2014-6-19T4:5:27Z</time></trkpt>
<trkpt lat="47.54537302" lon="7.59136498"><ele></ele><time>2014-6-19T4:5:30Z</time></trkpt>
<trkpt lat="47.54533304" lon="7.59130396"><ele></ele><time>2014-6-19T4:5:33Z</time></trkpt>
<trkpt lat="47.54534997" lon="7.59117404"><ele></ele><time>2014-6-19T4:5:36Z</time></trkpt>
<trkpt lat="47.54540504" lon="7.59103197"><ele></ele><time>2014-6-19T4:5:39Z</time></trkpt>
<trkpt lat="47.54550898" lon="7.59077800"><ele></ele><time>2014-6-19T4:5:42Z</time></trkpt>
<trkpt lat="47.54567100" lon="7.59031900"><ele></ele><time>2014-6-19T4:5:45Z</time></trkpt>
<trkpt lat="47.54583101" lon="7.58978901"><ele></ele><time>2014-6-19T4:5:48Z</time></trkpt>
<trkpt lat="47.54587803" lon="7.58922298"><ele></ele><time>2014-6-19T4:5:51Z</time></trkpt>
<trkpt lat="47.54591701" lon="7.58885401"><ele></ele><time>2014-6-19T4:5:54Z</time></trkpt>
<trkpt lat="47.54592899" lon="7.58878402"><ele></ele><time>2014-6-19T4:5:57Z</time></trkpt>
<trkpt lat="47.54595598" lon="7.58866098"><ele></ele><time>2014-6-19T4:6:0Z</time></trkpt>
<trkpt lat="47.54588499" lon="7.58850499"><ele></ele><time>2014-6-19T4:6:3Z</time></trkpt>
<trkpt lat="47.54563898" lon="7.58830902"><ele></ele><time>2014-6-19T4:6:6Z</time></trkpt>
<trkpt lat="47.54553898" lon="7.58822302"><ele></ele><time>2014-6-19T4:6:9Z</time></trkpt>
<trkpt lat="47.54537101" lon="7.58807902"><ele></ele><time>2014-6-19T4:6:12Z</time></trkpt>
<trkpt lat="47.54542398" lon="7.58774500"><ele></ele><time>2014-6-19T4:6:15Z</time></trkpt>
<trkpt lat="47.54505300" lon="7.58749103"><ele></ele><time>2014-6-19T4:6:18Z</time></trkpt>
<trkpt lat="47.54473700" lon="7.58721200"><ele></ele><time>2014-6-19T4:6:21Z</time></trkpt>
<trkpt lat="47.54441396" lon="7.58696800"><ele></ele><time>2014-6-19T4:6:24Z</time></trkpt>
<trkpt lat="47.54408397" lon="7.58668100"><ele></ele><time>2014-6-19T4:6:27Z</time></trkpt>
<trkpt lat="47.54385103" lon="7.58648998"><ele></ele><time>2014-6-19T4:6:30Z</time></trkpt>
<trkpt lat="47.54352498" lon="7.58619301"><ele></ele><time>2014-6-19T4:6:33Z</time></trkpt>
<trkpt lat="47.54318400" lon="7.58591196"><ele></ele><time>2014-6-19T4:6:36Z</time></trkpt>
<trkpt lat="47.54284001" lon="7.58562002"><ele></ele><time>2014-6-19T4:6:39Z</time></trkpt>
<trkpt lat="47.54266500" lon="7.58543897"><ele></ele><time>2014-6-19T4:6:42Z</time></trkpt>
<trkpt lat="47.54266097" lon="7.58542598"><ele></ele><time>2014-6-19T4:6:45Z</time></trkpt>
<trkpt lat="47.54266198" lon="7.58542498"><ele></ele><time>2014-6-19T4:6:48Z</time></trkpt>
<trkpt lat="47.54266198" lon="7.58542397"><ele></ele><time>2014-6-19T4:6:51Z</time></trkpt>
<trkpt lat="47.54266198" lon="7.58542397"><ele></ele><time>2014-6-19T4:6:54Z</time></trkpt>
<trkpt lat="47.54265703" lon="7.58542699"><ele></ele><time>2014-6-19T4:6:57Z</time></trkpt>
<trkpt lat="47.54255201" lon="7.58552204"><ele></ele><time>2014-6-19T4:7:0Z</time></trkpt>
<trkpt lat="47.54253499" lon="7.58556403"><ele></ele><time>2014-6-19T4:7:3Z</time></trkpt>
<trkpt lat="47.54248302" lon="7.58571398"><ele></ele><time>2014-6-19T4:7:6Z</time></trkpt>
<trkpt lat="47.54241304" lon="7.58594398"><ele></ele><time>2014-6-19T4:7:9Z</time></trkpt>
<trkpt lat="47.54224397" lon="7.58647498"><ele></ele><time>2014-6-19T4:7:12Z</time></trkpt>
<trkpt lat="47.54208899" lon="7.58695501"><ele></ele><time>2014-6-19T4:7:15Z</time></trkpt>
<trkpt lat="47.54206996" lon="7.58701301"><ele></ele><time>2014-6-19T4:7:18Z</time></trkpt>
<trkpt lat="47.54170904" lon="7.58718903"><ele></ele><time>2014-6-19T4:7:21Z</time></trkpt>
<trkpt lat="47.54167601" lon="7.58717202"><ele></ele><time>2014-6-19T4:7:24Z</time></trkpt>
<trkpt lat="47.54149899" lon="7.58705601"><ele></ele><time>2014-6-19T4:7:27Z</time></trkpt>
<trkpt lat="47.54137997" lon="7.58698099"><ele></ele><time>2014-6-19T4:7:30Z</time></trkpt>
<trkpt lat="47.54119598" lon="7.58688301"><ele></ele><time>2014-6-19T4:7:33Z</time></trkpt>
<trkpt lat="47.54086699" lon="7.58672803"><ele></ele><time>2014-6-19T4:7:36Z</time></trkpt>
<trkpt lat="47.54075099" lon="7.58667204"><ele></ele><time>2014-6-19T4:7:39Z</time></trkpt>
<trkpt lat="47.54063901" lon="7.58661998"><ele></ele><time>2014-6-19T4:7:42Z</time></trkpt>
<trkpt lat="47.54027196" lon="7.58656500"><ele></ele><time>2014-6-19T4:7:45Z</time></trkpt>
<trkpt lat="47.53994197" lon="7.58680204"><ele></ele><time>2014-6-19T4:7:48Z</time></trkpt>
<trkpt lat="47.53975597" lon="7.58727503"><ele></ele><time>2014-6-19T4:7:51Z</time></trkpt>
<trkpt lat="47.53966000" lon="7.58778800"><ele></ele><time>2014-6-19T4:7:54Z</time></trkpt>
<trkpt lat="47.53949001" lon="7.58749003"><ele></ele><time>2014-6-19T4:7:57Z</time></trkpt>
<trkpt lat="47.53948901" lon="7.58694696"><ele></ele><time>2014-6-19T4:8:0Z</time></trkpt>
<trkpt lat="47.53948398" lon="7.58640197"><ele></ele><time>2014-6-19T4:8:3Z</time></trkpt>
<trkpt lat="47.53932699" lon="7.58592898"><ele></ele><time>2014-6-19T4:8:6Z</time></trkpt>
<trkpt lat="47.53899699" lon="7.58571600"><ele></ele><time>2014-6-19T4:8:9Z</time></trkpt>
<trkpt lat="47.53864897" lon="7.58557099"><ele></ele><time>2014-6-19T4:8:12Z</time></trkpt>
<trkpt lat="47.53829199" lon="7.58557702"><ele></ele><time>2014-6-19T4:8:15Z</time></trkpt>
<trkpt lat="47.53798697" lon="7.58586704"><ele></ele><time>2014-6-19T4:8:18Z</time></trkpt>
<trkpt lat="47.53777298" lon="7.58615102"><ele></ele><time>2014-6-19T4:8:21Z</time></trkpt>
<trkpt lat="47.53773199" lon="7.58626602"><ele></ele><time>2014-6-19T4:8:24Z</time></trkpt>
<trkpt lat="47.53744600" lon="7.58649300"><ele></ele><time>2014-6-19T4:8:27Z</time></trkpt>
<trkpt lat="47.53709204" lon="7.58664899"><ele></ele><time>2014-6-19T4:8:30Z</time></trkpt>
<trkpt lat="47.53686296" lon="7.58669903"><ele></ele><time>2014-6-19T4:8:33Z</time></trkpt>
<trkpt lat="47.53648502" lon="7.58670699"><ele></ele><time>2014-6-19T4:8:36Z</time></trkpt>
<trkpt lat="47.53615997" lon="7.58677999"><ele></ele><time>2014-6-19T4:8:39Z</time></trkpt>
<trkpt lat="47.53590298" lon="7.58716598"><ele></ele><time>2014-6-19T4:8:42Z</time></trkpt>
<trkpt lat="47.53558698" lon="7.58743999"><ele></ele><time>2014-6-19T4:8:45Z</time></trkpt>
<trkpt lat="47.53521902" lon="7.58759103"><ele></ele><time>2014-6-19T4:8:48Z</time></trkpt>
<trkpt lat="47.53484502" lon="7.58761198"><ele></ele><time>2014-6-19T4:8:51Z</time></trkpt>
<trkpt lat="47.53446699" lon="7.58752598"><ele></ele><time>2014-6-19T4:8:54Z</time></trkpt>
<trkpt lat="47.53412400" lon="7.58734401"><ele></ele><time>2014-6-19T4:8:57Z</time></trkpt>
<trkpt lat="47.53379401" lon="7.58721703"><ele></ele><time>2014-6-19T4:9:0Z</time></trkpt>
<trkpt lat="47.53351497" lon="7.58720202"><ele></ele><time>2014-6-19T4:9:3Z</time></trkpt>
<trkpt lat="47.53332303" lon="7.58718501"><ele></ele><time>2014-6-19T4:9:6Z</time></trkpt>
<trkpt lat="47.53319998" lon="7.58717998"><ele></ele><time>2014-6-19T4:9:9Z</time></trkpt>
<trkpt lat="47.53306604" lon="7.58719197"><ele></ele><time>2014-6-19T4:9:12Z</time></trkpt>
<trkpt lat="47.53298499" lon="7.58719398"><ele></ele><time>2014-6-19T4:9:15Z</time></trkpt>
<trkpt lat="47.53289103" lon="7.58718300"><ele></ele><time>2014-6-19T4:9:18Z</time></trkpt>
<trkpt lat="47.53277997" lon="7.58719800"><ele></ele><time>2014-6-19T4:9:21Z</time></trkpt>
<trkpt lat="47.53241602" lon="7.58727402"><ele></ele><time>2014-6-19T4:9:24Z</time></trkpt>
<trkpt lat="47.53222500" lon="7.58746396"><ele></ele><time>2014-6-19T4:9:27Z</time></trkpt>
<trkpt lat="47.53205803" lon="7.58785699"><ele></ele><time>2014-6-19T4:9:30Z</time></trkpt>
<trkpt lat="47.53191001" lon="7.58822696"><ele></ele><time>2014-6-19T4:9:33Z</time></trkpt>
<trkpt lat="47.53160197" lon="7.58855101"><ele></ele><time>2014-6-19T4:9:36Z</time></trkpt>
<trkpt lat="47.53123200" lon="7.58868998"><ele></ele><time>2014-6-19T4:9:39Z</time></trkpt>
<trkpt lat="47.53085598" lon="7.58872703"><ele></ele><time>2014-6-19T4:9:42Z</time></trkpt>
<trkpt lat="47.53060402" lon="7.58872099"><ele></ele><time>2014-6-19T4:9:45Z</time></trkpt>
<trkpt lat="47.53044100" lon="7.58870901"><ele></ele><time>2014-6-19T4:9:48Z</time></trkpt>
<trkpt lat="47.53022298" lon="7.58868000"><ele></ele><time>2014-6-19T4:9:51Z</time></trkpt>
<trkpt lat="47.52984999" lon="7.58866400"><ele></ele><time>2014-6-19T4:9:54Z</time></trkpt>
<trkpt lat="47.52949099" lon="7.58862703"><ele></ele><time>2014-6-19T4:9:57Z</time></trkpt>
<trkpt lat="47.52917600" lon="7.58861203"><ele></ele><time>2014-6-19T4:10:0Z</time></trkpt>
<trkpt lat="47.52880200" lon="7.58852201"><ele></ele><time>2014-6-19T4:10:3Z</time></trkpt>
<trkpt lat="47.52843202" lon="7.58849401"><ele></ele><time>2014-6-19T4:10:6Z</time></trkpt>
<trkpt lat="47.52823496" lon="7.58869702"><ele></ele><time>2014-6-19T4:10:9Z</time></trkpt>
<trkpt lat="47.52814301" lon="7.58886902"><ele></ele><time>2014-6-19T4:10:12Z</time></trkpt>
<trkpt lat="47.52808199" lon="7.58902199"><ele></ele><time>2014-6-19T4:10:15Z</time></trkpt>
<trkpt lat="47.52800597" lon="7.58937696"><ele></ele><time>2014-6-19T4:10:18Z</time></trkpt>
<trkpt lat="47.52799197" lon="7.58949104"><ele></ele><time>2014-6-19T4:10:21Z</time></trkpt>
<trkpt lat="47.52792601" lon="7.58956597"><ele></ele><time>2014-6-19T4:10:24Z</time></trkpt>
<trkpt lat="47.52752602" lon="7.58973403"><ele></ele><time>2014-6-19T4:10:27Z</time></trkpt>
<trkpt lat="47.52715403" lon="7.58988398"><ele></ele><time>2014-6-19T4:10:30Z</time></trkpt>
<trkpt lat="47.52677299" lon="7.58998004"><ele></ele><time>2014-6-19T4:10:33Z</time></trkpt>
<trkpt lat="47.52639396" lon="7.59001298"><ele></ele><time>2014-6-19T4:10:36Z</time></trkpt>
<trkpt lat="47.52629204" lon="7.59000904"><ele></ele><time>2014-6-19T4:10:39Z</time></trkpt>
<trkpt lat="47.52593597" lon="7.59003301"><ele></ele><time>2014-6-19T4:10:42Z</time></trkpt>
<trkpt lat="47.52572098" lon="7.59001499"><ele></ele><time>2014-6-19T4:10:45Z</time></trkpt>
<trkpt lat="47.52551403" lon="7.58989898"><ele></ele><time>2014-6-19T4:10:48Z</time></trkpt>
<trkpt lat="47.52515604" lon="7.58971601"><ele></ele><time>2014-6-19T4:10:51Z</time></trkpt>
<trkpt lat="47.52477298" lon="7.58969304"><ele></ele><time>2014-6-19T4:10:54Z</time></trkpt>
<trkpt lat="47.52451097" lon="7.58968600"><ele></ele><time>2014-6-19T4:10:57Z</time></trkpt>
<trkpt lat="47.52414200" lon="7.58964904"><ele></ele><time>2014-6-19T4:11:0Z</time></trkpt>
<trkpt lat="47.52376498" lon="7.58952297"><ele></ele><time>2014-6-19T4:11:3Z</time></trkpt>
<trkpt lat="47.52369499" lon="7.58950504"><ele></ele><time>2014-6-19T4:11:6Z</time></trkpt>
<trkpt lat="47.52333499" lon="7.58942599"><ele></ele><time>2014-6-19T4:11:9Z</time></trkpt>
<trkpt lat="47.52291899" lon="7.58940998"><ele></ele><time>2014-6-19T4:11:12Z</time></trkpt>
<trkpt lat="47.52255999" lon="7.58946497"><ele></ele><time>2014-6-19T4:11:15Z</time></trkpt>
<trkpt lat="47.52219496" lon="7.58956597"><ele></ele><time>2014-6-19T4:11:18Z</time></trkpt>
<trkpt lat="47.52181401" lon="7.58974903"><ele></ele><time>2014-6-19T4:11:21Z</time></trkpt>
<trkpt lat="47.52148703" lon="7.58986001"><ele></ele><time>2014-6-19T4:11:24Z</time></trkpt>
<trkpt lat="47.52111504" lon="7.58991801"><ele></ele><time>2014-6-19T4:11:27Z</time></trkpt>
<trkpt lat="47.52075001" lon="7.58999596"><ele></ele><time>2014-6-19T4:11:30Z</time></trkpt>
<trkpt lat="47.52038598" lon="7.59013401"><ele></ele><time>2014-6-19T4:11:33Z</time></trkpt>
<trkpt lat="47.52000603" lon="7.59030500"><ele></ele><time>2014-6-19T4:11:36Z</time></trkpt>
<trkpt lat="47.51964401" lon="7.59040802"><ele></ele><time>2014-6-19T4:11:39Z</time></trkpt>
<trkpt lat="47.51925803" lon="7.59041598"><ele></ele><time>2014-6-19T4:11:42Z</time></trkpt>
<trkpt lat="47.51885100" lon="7.59033702"><ele></ele><time>2014-6-19T4:11:45Z</time></trkpt>
<trkpt lat="47.51845697" lon="7.59021498"><ele></ele><time>2014-6-19T4:11:48Z</time></trkpt>
<trkpt lat="47.51816997" lon="7.59013301"><ele></ele><time>2014-6-19T4:11:51Z</time></trkpt>
<trkpt lat="47.51804701" lon="7.59009303"><ele></ele><time>2014-6-19T4:11:54Z</time></trkpt>
<trkpt lat="47.51801097" lon="7.59008104"><ele></ele><time>2014-6-19T4:11:57Z</time></trkpt>
<trkpt lat="47.51784400" lon="7.59003301"><ele></ele><time>2014-6-19T4:12:0Z</time></trkpt>
<trkpt lat="47.51781098" lon="7.59002203"><ele></ele><time>2014-6-19T4:12:3Z</time></trkpt>
<trkpt lat="47.51740504" lon="7.58990804"><ele></ele><time>2014-6-19T4:12:6Z</time></trkpt>
<trkpt lat="47.51702098" lon="7.58986697"><ele></ele><time>2014-6-19T4:12:9Z</time></trkpt>
<trkpt lat="47.51665402" lon="7.58985003"><ele></ele><time>2014-6-19T4:12:12Z</time></trkpt>
<trkpt lat="47.51626804" lon="7.58976404"><ele></ele><time>2014-6-19T4:12:15Z</time></trkpt>
<trkpt lat="47.51590300" lon="7.58964602"><ele></ele><time>2014-6-19T4:12:18Z</time></trkpt>
<trkpt lat="47.51554602" lon="7.58952700"><ele></ele><time>2014-6-19T4:12:21Z</time></trkpt>
<trkpt lat="47.51516196" lon="7.58938802"><ele></ele><time>2014-6-19T4:12:24Z</time></trkpt>
<trkpt lat="47.51476399" lon="7.58925299"><ele></ele><time>2014-6-19T4:12:27Z</time></trkpt>
<trkpt lat="47.51436803" lon="7.58911997"><ele></ele><time>2014-6-19T4:12:30Z</time></trkpt>
<trkpt lat="47.51400903" lon="7.58900397"><ele></ele><time>2014-6-19T4:12:33Z</time></trkpt>
<trkpt lat="47.51364802" lon="7.58888503"><ele></ele><time>2014-6-19T4:12:36Z</time></trkpt>
<trkpt lat="47.51328098" lon="7.58876399"><ele></ele><time>2014-6-19T4:12:39Z</time></trkpt>
<trkpt lat="47.51291703" lon="7.58860197"><ele></ele><time>2014-6-19T4:12:42Z</time></trkpt>
<trkpt lat="47.51255603" lon="7.58844104"><ele></ele><time>2014-6-19T4:12:45Z</time></trkpt>
<trkpt lat="47.51252803" lon="7.58843500"><ele></ele><time>2014-6-19T4:12:48Z</time></trkpt>
<trkpt lat="47.51231999" lon="7.58831900"><ele></ele><time>2014-6-19T4:12:51Z</time></trkpt>
<trkpt lat="47.51200399" lon="7.58816301"><ele></ele><time>2014-6-19T4:12:54Z</time></trkpt>
<trkpt lat="47.51183401" lon="7.58808003"><ele></ele><time>2014-6-19T4:12:57Z</time></trkpt>
<trkpt lat="47.51146101" lon="7.58789998"><ele></ele><time>2014-6-19T4:13:0Z</time></trkpt>
<trkpt lat="47.51109498" lon="7.58772003"><ele></ele><time>2014-6-19T4:13:3Z</time></trkpt>
<trkpt lat="47.51072299" lon="7.58754300"><ele></ele><time>2014-6-19T4:13:6Z</time></trkpt>
<trkpt lat="47.51034999" lon="7.58736698"><ele></ele><time>2014-6-19T4:13:9Z</time></trkpt>
<trkpt lat="47.50999502" lon="7.58719197"><ele></ele><time>2014-6-19T4:13:12Z</time></trkpt>
<trkpt lat="47.50992796" lon="7.58714503"><ele></ele><time>2014-6-19T4:13:15Z</time></trkpt>
<trkpt lat="47.50984599" lon="7.58651999"><ele></ele><time>2014-6-19T4:13:18Z</time></trkpt>
<trkpt lat="47.50976603" lon="7.58594901"><ele></ele><time>2014-6-19T4:13:21Z</time></trkpt>
<trkpt lat="47.50968103" lon="7.58538298"><ele></ele><time>2014-6-19T4:13:24Z</time></trkpt>
<trkpt lat="47.50960199" lon="7.58481796"><ele></ele><time>2014-6-19T4:13:27Z</time></trkpt>
<trkpt lat="47.50952102" lon="7.58424296"><ele></ele><time>2014-6-19T4:13:30Z</time></trkpt>
<trkpt lat="47.50944198" lon="7.58369202"><ele></ele><time>2014-6-19T4:13:33Z</time></trkpt>
<trkpt lat="47.50939404" lon="7.58336504"><ele></ele><time>2014-6-19T4:13:36Z</time></trkpt>
<trkpt lat="47.50896304" lon="7.58322900"><ele></ele><time>2014-6-19T4:13:39Z</time></trkpt>
<trkpt lat="47.50858602" lon="7.58316002"><ele></ele><time>2014-6-19T4:13:42Z</time></trkpt>
<trkpt lat="47.50822200" lon="7.58309598"><ele></ele><time>2014-6-19T4:13:45Z</time></trkpt>
<trkpt lat="47.50795797" lon="7.58303898"><ele></ele><time>2014-6-19T4:13:48Z</time></trkpt>
<trkpt lat="47.50787197" lon="7.58302398"><ele></ele><time>2014-6-19T4:13:51Z</time></trkpt>
<trkpt lat="47.50778496" lon="7.58304301"><ele></ele><time>2014-6-19T4:13:54Z</time></trkpt>
<trkpt lat="47.50768798" lon="7.58316404"><ele></ele><time>2014-6-19T4:13:57Z</time></trkpt>
<trkpt lat="47.50766200" lon="7.58317200"><ele></ele><time>2014-6-19T4:14:0Z</time></trkpt>
<trkpt lat="47.50757198" lon="7.58318902"><ele></ele><time>2014-6-19T4:14:3Z</time></trkpt>
<trkpt lat="47.50751398" lon="7.58320101"><ele></ele><time>2014-6-19T4:14:6Z</time></trkpt>
<trkpt lat="47.50731600" lon="7.58322699"><ele></ele><time>2014-6-19T4:14:9Z</time></trkpt>
<trkpt lat="47.50729303" lon="7.58267596"><ele></ele><time>2014-6-19T4:14:12Z</time></trkpt>
<trkpt lat="47.50730904" lon="7.58209803"><ele></ele><time>2014-6-19T4:14:15Z</time></trkpt>
<trkpt lat="47.50719496" lon="7.58158204"><ele></ele><time>2014-6-19T4:14:18Z</time></trkpt>
<trkpt lat="47.50704300" lon="7.58106002"><ele></ele><time>2014-6-19T4:14:21Z</time></trkpt>
<trkpt lat="47.50696597" lon="7.58087302"><ele></ele><time>2014-6-19T4:14:24Z</time></trkpt>
<trkpt lat="47.50666296" lon="7.58044001"><ele></ele><time>2014-6-19T4:14:27Z</time></trkpt>
<trkpt lat="47.50637496" lon="7.58007699"><ele></ele><time>2014-6-19T4:14:30Z</time></trkpt>
<trkpt lat="47.50604798" lon="7.57984296"><ele></ele><time>2014-6-19T4:14:33Z</time></trkpt>
<trkpt lat="47.50577901" lon="7.57964197"><ele></ele><time>2014-6-19T4:14:36Z</time></trkpt>
<trkpt lat="47.50542697" lon="7.57949101"><ele></ele><time>2014-6-19T4:14:39Z</time></trkpt>
<trkpt lat="47.50514098" lon="7.57938196"><ele></ele><time>2014-6-19T4:14:42Z</time></trkpt>
<trkpt lat="47.50478500" lon="7.57929697"><ele></ele><time>2014-6-19T4:14:45Z</time></trkpt>
<trkpt lat="47.50441301" lon="7.57924601"><ele></ele><time>2014-6-19T4:14:48Z</time></trkpt>
<trkpt lat="47.50404504" lon="7.57923402"><ele></ele><time>2014-6-19T4:14:51Z</time></trkpt>
<trkpt lat="47.50371697" lon="7.57927199"><ele></ele><time>2014-6-19T4:14:54Z</time></trkpt>
<trkpt lat="47.50341497" lon="7.57907401"><ele></ele><time>2014-6-19T4:14:57Z</time></trkpt>
<trkpt lat="47.50324901" lon="7.57892104"><ele></ele><time>2014-6-19T4:15:0Z</time></trkpt>
<trkpt lat="47.50301700" lon="7.57881300"><ele></ele><time>2014-6-19T4:15:3Z</time></trkpt>
<trkpt lat="47.50286797" lon="7.57902497"><ele></ele><time>2014-6-19T4:15:6Z</time></trkpt>
<trkpt lat="47.50295104" lon="7.57958304"><ele></ele><time>2014-6-19T4:15:9Z</time></trkpt>
<trkpt lat="47.50299697" lon="7.58009199"><ele></ele><time>2014-6-19T4:15:12Z</time></trkpt>
<trkpt lat="47.50306796" lon="7.58048401"><ele></ele><time>2014-6-19T4:15:15Z</time></trkpt>
<trkpt lat="47.50307702" lon="7.58060404"><ele></ele><time>2014-6-19T4:15:18Z</time></trkpt>
<trkpt lat="47.50310401" lon="7.58086899"><ele></ele><time>2014-6-19T4:15:21Z</time></trkpt>
<trkpt lat="47.50313904" lon="7.58127199"><ele></ele><time>2014-6-19T4:15:24Z</time></trkpt>
<trkpt lat="47.50317399" lon="7.58159604"><ele></ele><time>2014-6-19T4:15:27Z</time></trkpt>
<trkpt lat="47.50319998" lon="7.58175798"><ele></ele><time>2014-6-19T4:15:30Z</time></trkpt>
<trkpt lat="47.50322102" lon="7.58193299"><ele></ele><time>2014-6-19T4:15:33Z</time></trkpt>
<trkpt lat="47.50317399" lon="7.58249701"><ele></ele><time>2014-6-19T4:15:36Z</time></trkpt>
<trkpt lat="47.50291399" lon="7.58260396"><ele></ele><time>2014-6-19T4:15:39Z</time></trkpt>
<trkpt lat="47.50250202" lon="7.58238897"><ele></ele><time>2014-6-19T4:15:42Z</time></trkpt>
<trkpt lat="47.50214201" lon="7.58212997"><ele></ele><time>2014-6-19T4:15:45Z</time></trkpt>
<trkpt lat="47.50179903" lon="7.58190097"><ele></ele><time>2014-6-19T4:15:48Z</time></trkpt>
<trkpt lat="47.50155302" lon="7.58173199"><ele></ele><time>2014-6-19T4:15:51Z</time></trkpt>
<trkpt lat="47.50139502" lon="7.58163099"><ele></ele><time>2014-6-19T4:15:54Z</time></trkpt>
<trkpt lat="47.50122604" lon="7.58172202"><ele></ele><time>2014-6-19T4:15:57Z</time></trkpt>
<trkpt lat="47.50117198" lon="7.58180802"><ele></ele><time>2014-6-19T4:16:0Z</time></trkpt>
<trkpt lat="47.50111196" lon="7.58182403"><ele></ele><time>2014-6-19T4:16:3Z</time></trkpt>
<trkpt lat="47.50103502" lon="7.58173099"><ele></ele><time>2014-6-19T4:16:6Z</time></trkpt>
<trkpt lat="47.50090200" lon="7.58118097"><ele></ele><time>2014-6-19T4:16:9Z</time></trkpt>
<trkpt lat="47.50075699" lon="7.58057102"><ele></ele><time>2014-6-19T4:16:12Z</time></trkpt>
<trkpt lat="47.50064400" lon="7.58004304"><ele></ele><time>2014-6-19T4:16:15Z</time></trkpt>
<trkpt lat="47.50053403" lon="7.57955102"><ele></ele><time>2014-6-19T4:16:18Z</time></trkpt>
<trkpt lat="47.50039204" lon="7.57890704"><ele></ele><time>2014-6-19T4:16:21Z</time></trkpt>
<trkpt lat="47.50028601" lon="7.57833498"><ele></ele><time>2014-6-19T4:16:24Z</time></trkpt>
<trkpt lat="47.50024804" lon="7.57823397"><ele></ele><time>2014-6-19T4:16:27Z</time></trkpt>
<trkpt lat="47.50022097" lon="7.57815602"><ele></ele><time>2014-6-19T4:16:30Z</time></trkpt>
<trkpt lat="47.50005400" lon="7.57808402"><ele></ele><time>2014-6-19T4:16:33Z</time></trkpt>
<trkpt lat="47.49996096" lon="7.57785503"><ele></ele><time>2014-6-19T4:16:36Z</time></trkpt>
<trkpt lat="47.49993397" lon="7.57756904"><ele></ele><time>2014-6-19T4:16:39Z</time></trkpt>
<trkpt lat="47.49991603" lon="7.57737097"><ele></ele><time>2014-6-19T4:16:42Z</time></trkpt>
<trkpt lat="47.49988502" lon="7.57707803"><ele></ele><time>2014-6-19T4:16:45Z</time></trkpt>
<trkpt lat="47.49965703" lon="7.57651501"><ele></ele><time>2014-6-19T4:16:48Z</time></trkpt>
<trkpt lat="47.49941597" lon="7.57609500"><ele></ele><time>2014-6-19T4:16:51Z</time></trkpt>
<trkpt lat="47.49936199" lon="7.57602300"><ele></ele><time>2014-6-19T4:16:54Z</time></trkpt>
<trkpt lat="47.49918102" lon="7.57609701"><ele></ele><time>2014-6-19T4:16:57Z</time></trkpt>
<trkpt lat="47.49884499" lon="7.57592702"><ele></ele><time>2014-6-19T4:17:0Z</time></trkpt>
<trkpt lat="47.49883099" lon="7.57585100"><ele></ele><time>2014-6-19T4:17:3Z</time></trkpt>
<trkpt lat="47.49879101" lon="7.57560197"><ele></ele><time>2014-6-19T4:17:6Z</time></trkpt>
<trkpt lat="47.49854500" lon="7.57508003"><ele></ele><time>2014-6-19T4:17:9Z</time></trkpt>
<trkpt lat="47.49827997" lon="7.57454200"><ele></ele><time>2014-6-19T4:17:12Z</time></trkpt>
<trkpt lat="47.49813303" lon="7.57423497"><ele></ele><time>2014-6-19T4:17:15Z</time></trkpt>
<trkpt lat="47.49785501" lon="7.57386499"><ele></ele><time>2014-6-19T4:17:18Z</time></trkpt>
<trkpt lat="47.49756902" lon="7.57364698"><ele></ele><time>2014-6-19T4:17:21Z</time></trkpt>
<trkpt lat="47.49748000" lon="7.57358604"><ele></ele><time>2014-6-19T4:17:24Z</time></trkpt>
<trkpt lat="47.49739300" lon="7.57352804"><ele></ele><time>2014-6-19T4:17:27Z</time></trkpt>
<trkpt lat="47.49722502" lon="7.57338496"><ele></ele><time>2014-6-19T4:17:30Z</time></trkpt>
<trkpt lat="47.49714699" lon="7.57327901"><ele></ele><time>2014-6-19T4:17:33Z</time></trkpt>
<trkpt lat="47.49708496" lon="7.57315798"><ele></ele><time>2014-6-19T4:17:36Z</time></trkpt>
<trkpt lat="47.49702302" lon="7.57304197"><ele></ele><time>2014-6-19T4:17:39Z</time></trkpt>
<trkpt lat="47.49684499" lon="7.57247896"><ele></ele><time>2014-6-19T4:17:42Z</time></trkpt>
<trkpt lat="47.49671599" lon="7.57206297"><ele></ele><time>2014-6-19T4:17:45Z</time></trkpt>
<trkpt lat="47.49646797" lon="7.57155100"><ele></ele><time>2014-6-19T4:17:48Z</time></trkpt>
<trkpt lat="47.49631198" lon="7.57138504"><ele></ele><time>2014-6-19T4:17:51Z</time></trkpt>
<trkpt lat="47.49592801" lon="7.57108203"><ele></ele><time>2014-6-19T4:17:54Z</time></trkpt>
<trkpt lat="47.49561100" lon="7.57089201"><ele></ele><time>2014-6-19T4:17:57Z</time></trkpt>
<trkpt lat="47.49544202" lon="7.57078498"><ele></ele><time>2014-6-19T4:18:0Z</time></trkpt>
<trkpt lat="47.49532199" lon="7.57072002"><ele></ele><time>2014-6-19T4:18:3Z</time></trkpt>
<trkpt lat="47.49522996" lon="7.57065699"><ele></ele><time>2014-6-19T4:18:6Z</time></trkpt>
<trkpt lat="47.49518998" lon="7.57063201"><ele></ele><time>2014-6-19T4:18:9Z</time></trkpt>
<trkpt lat="47.49514597" lon="7.57071599"><ele></ele><time>2014-6-19T4:18:12Z</time></trkpt>
<trkpt lat="47.49510004" lon="7.57108103"><ele></ele><time>2014-6-19T4:18:15Z</time></trkpt>
<trkpt lat="47.49509099" lon="7.57114104"><ele></ele><time>2014-6-19T4:18:18Z</time></trkpt>
<trkpt lat="47.49497297" lon="7.57119301"><ele></ele><time>2014-6-19T4:18:21Z</time></trkpt>
<trkpt lat="47.49463803" lon="7.57089403"><ele></ele><time>2014-6-19T4:18:24Z</time></trkpt>
<trkpt lat="47.49432396" lon="7.57061197"><ele></ele><time>2014-6-19T4:18:27Z</time></trkpt>
<trkpt lat="47.49412397" lon="7.57041902"><ele></ele><time>2014-6-19T4:18:30Z</time></trkpt>
<trkpt lat="47.49382004" lon="7.57013697"><ele></ele><time>2014-6-19T4:18:33Z</time></trkpt>
<trkpt lat="47.49350203" lon="7.56985400"><ele></ele><time>2014-6-19T4:18:36Z</time></trkpt>
<trkpt lat="47.49329198" lon="7.56964898"><ele></ele><time>2014-6-19T4:18:39Z</time></trkpt>
<trkpt lat="47.49293399" lon="7.56968502"><ele></ele><time>2014-6-19T4:18:42Z</time></trkpt>
<trkpt lat="47.49268899" lon="7.56977102"><ele></ele><time>2014-6-19T4:18:45Z</time></trkpt>
<trkpt lat="47.49257298" lon="7.56981402"><ele></ele><time>2014-6-19T4:18:48Z</time></trkpt>
<trkpt lat="47.49255496" lon="7.56983003"><ele></ele><time>2014-6-19T4:18:51Z</time></trkpt>
<trkpt lat="47.49228397" lon="7.56989800"><ele></ele><time>2014-6-19T4:18:54Z</time></trkpt>
<trkpt lat="47.49205297" lon="7.56991100"><ele></ele><time>2014-6-19T4:18:57Z</time></trkpt>
<trkpt lat="47.49172901" lon="7.56989004"><ele></ele><time>2014-6-19T4:19:0Z</time></trkpt>
<trkpt lat="47.49163899" lon="7.56987403"><ele></ele><time>2014-6-19T4:19:3Z</time></trkpt>
<trkpt lat="47.49159699" lon="7.56983900"><ele></ele><time>2014-6-19T4:19:6Z</time></trkpt>
<trkpt lat="47.49157604" lon="7.56983397"><ele></ele><time>2014-6-19T4:19:9Z</time></trkpt>
<trkpt lat="47.49157604" lon="7.56983397"><ele></ele><time>2014-6-19T4:19:12Z</time></trkpt>
<trkpt lat="47.49157403" lon="7.56984998"><ele></ele><time>2014-6-19T4:19:15Z</time></trkpt>
<trkpt lat="47.49160001" lon="7.56984796"><ele></ele><time>2014-6-19T4:19:18Z</time></trkpt>
<trkpt lat="47.49157897" lon="7.56985802"><ele></ele><time>2014-6-19T4:19:21Z</time></trkpt>
<trkpt lat="47.49157897" lon="7.56985802"><ele></ele><time>2014-6-19T4:19:24Z</time></trkpt>
<trkpt lat="47.49158601" lon="7.56986598"><ele></ele><time>2014-6-19T4:19:27Z</time></trkpt>
<trkpt lat="47.49158601" lon="7.56986003"><ele></ele><time>2014-6-19T4:19:30Z</time></trkpt>
<trkpt lat="47.49158501" lon="7.56986003"><ele></ele><time>2014-6-19T4:19:33Z</time></trkpt>
<trkpt lat="47.49127203" lon="7.56962702"><ele></ele><time>2014-6-19T4:19:36Z</time></trkpt>
<trkpt lat="47.49119097" lon="7.56918202"><ele></ele><time>2014-6-19T4:19:39Z</time></trkpt>
<trkpt lat="47.49115401" lon="7.56887600"><ele></ele><time>2014-6-19T4:19:42Z</time></trkpt>
<trkpt lat="47.49110598" lon="7.56832103"><ele></ele><time>2014-6-19T4:19:45Z</time></trkpt>
<trkpt lat="47.49107103" lon="7.56778501"><ele></ele><time>2014-6-19T4:19:48Z</time></trkpt>
<trkpt lat="47.49103901" lon="7.56729601"><ele></ele><time>2014-6-19T4:19:51Z</time></trkpt>
<trkpt lat="47.49101202" lon="7.56679402"><ele></ele><time>2014-6-19T4:19:54Z</time></trkpt>
<trkpt lat="47.49100104" lon="7.56623302"><ele></ele><time>2014-6-19T4:19:57Z</time></trkpt>
<trkpt lat="47.49100800" lon="7.56566104"><ele></ele><time>2014-6-19T4:20:0Z</time></trkpt>
<trkpt lat="47.49102300" lon="7.56512803"><ele></ele><time>2014-6-19T4:20:3Z</time></trkpt>
<trkpt lat="47.49116398" lon="7.56465898"><ele></ele><time>2014-6-19T4:20:6Z</time></trkpt>
<trkpt lat="47.49115099" lon="7.56454004"><ele></ele><time>2014-6-19T4:20:9Z</time></trkpt>
<trkpt lat="47.49085402" lon="7.56407501"><ele></ele><time>2014-6-19T4:20:12Z</time></trkpt>
<trkpt lat="47.49081002" lon="7.56400896"><ele></ele><time>2014-6-19T4:20:15Z</time></trkpt>
<trkpt lat="47.49055697" lon="7.56362800"><ele></ele><time>2014-6-19T4:20:18Z</time></trkpt>
<trkpt lat="47.49027802" lon="7.56320103"><ele></ele><time>2014-6-19T4:20:21Z</time></trkpt>
<trkpt lat="47.49009697" lon="7.56292401"><ele></ele><time>2014-6-19T4:20:24Z</time></trkpt>
<trkpt lat="47.49001902" lon="7.56281404"><ele></ele><time>2014-6-19T4:20:27Z</time></trkpt>
<trkpt lat="47.48984601" lon="7.56253299"><ele></ele><time>2014-6-19T4:20:30Z</time></trkpt>
<trkpt lat="47.48943999" lon="7.56211599"><ele></ele><time>2014-6-19T4:20:33Z</time></trkpt>
<trkpt lat="47.48909499" lon="7.56183000"><ele></ele><time>2014-6-19T4:20:36Z</time></trkpt>
<trkpt lat="47.48874798" lon="7.56155600"><ele></ele><time>2014-6-19T4:20:39Z</time></trkpt>
<trkpt lat="47.48839997" lon="7.56138098"><ele></ele><time>2014-6-19T4:20:42Z</time></trkpt>
<trkpt lat="47.48801004" lon="7.56137503"><ele></ele><time>2014-6-19T4:20:45Z</time></trkpt>
<trkpt lat="47.48762699" lon="7.56150596"><ele></ele><time>2014-6-19T4:20:48Z</time></trkpt>
<trkpt lat="47.48744904" lon="7.56156304"><ele></ele><time>2014-6-19T4:20:51Z</time></trkpt>
<trkpt lat="47.48729699" lon="7.56160000"><ele></ele><time>2014-6-19T4:20:54Z</time></trkpt>
<trkpt lat="47.48716699" lon="7.56160696"><ele></ele><time>2014-6-19T4:20:57Z</time></trkpt>
<trkpt lat="47.48708501" lon="7.56160403"><ele></ele><time>2014-6-19T4:21:0Z</time></trkpt>
<trkpt lat="47.48704503" lon="7.56160202"><ele></ele><time>2014-6-19T4:21:3Z</time></trkpt>
<trkpt lat="47.48689701" lon="7.56158601"><ele></ele><time>2014-6-19T4:21:6Z</time></trkpt>
<trkpt lat="47.48686197" lon="7.56157997"><ele></ele><time>2014-6-19T4:21:9Z</time></trkpt>
<trkpt lat="47.48648596" lon="7.56144100"><ele></ele><time>2014-6-19T4:21:12Z</time></trkpt>
<trkpt lat="47.48614297" lon="7.56119197"><ele></ele><time>2014-6-19T4:21:15Z</time></trkpt>
<trkpt lat="47.48587903" lon="7.56101000"><ele></ele><time>2014-6-19T4:21:18Z</time></trkpt>
<trkpt lat="47.48552699" lon="7.56072703"><ele></ele><time>2014-6-19T4:21:21Z</time></trkpt>
<trkpt lat="47.48543202" lon="7.56046702"><ele></ele><time>2014-6-19T4:21:24Z</time></trkpt>
<trkpt lat="47.48539899" lon="7.56024800"><ele></ele><time>2014-6-19T4:21:27Z</time></trkpt>
<trkpt lat="47.48501896" lon="7.56011398"><ele></ele><time>2014-6-19T4:21:30Z</time></trkpt>
<trkpt lat="47.48465703" lon="7.56003804"><ele></ele><time>2014-6-19T4:21:33Z</time></trkpt>
<trkpt lat="47.48444103" lon="7.55999001"><ele></ele><time>2014-6-19T4:21:36Z</time></trkpt>
<trkpt lat="47.48406200" lon="7.55990602"><ele></ele><time>2014-6-19T4:21:39Z</time></trkpt>
<trkpt lat="47.48370501" lon="7.55982799"><ele></ele><time>2014-6-19T4:21:42Z</time></trkpt>
<trkpt lat="47.48333696" lon="7.55973998"><ele></ele><time>2014-6-19T4:21:45Z</time></trkpt>
<trkpt lat="47.48299196" lon="7.55966202"><ele></ele><time>2014-6-19T4:21:48Z</time></trkpt>
<trkpt lat="47.48273699" lon="7.55960201"><ele></ele><time>2014-6-19T4:21:51Z</time></trkpt>
<trkpt lat="47.48238000" lon="7.55951702"><ele></ele><time>2014-6-19T4:21:54Z</time></trkpt>
<trkpt lat="47.48198002" lon="7.55942004"><ele></ele><time>2014-6-19T4:21:57Z</time></trkpt>
<trkpt lat="47.48156201" lon="7.55932398"><ele></ele><time>2014-6-19T4:22:0Z</time></trkpt>
<trkpt lat="47.48117996" lon="7.55923203"><ele></ele><time>2014-6-19T4:22:3Z</time></trkpt>
<trkpt lat="47.48081502" lon="7.55914503"><ele></ele><time>2014-6-19T4:22:6Z</time></trkpt>
<trkpt lat="47.48068401" lon="7.55910496"><ele></ele><time>2014-6-19T4:22:9Z</time></trkpt>
<trkpt lat="47.48045099" lon="7.55902600"><ele></ele><time>2014-6-19T4:22:12Z</time></trkpt>
<trkpt lat="47.48030397" lon="7.55897001"><ele></ele><time>2014-6-19T4:22:15Z</time></trkpt>
<trkpt lat="47.48019501" lon="7.55892601"><ele></ele><time>2014-6-19T4:22:18Z</time></trkpt>
<trkpt lat="47.47989904" lon="7.55882400"><ele></ele><time>2014-6-19T4:22:21Z</time></trkpt>
<trkpt lat="47.47952697" lon="7.55869400"><ele></ele><time>2014-6-19T4:22:24Z</time></trkpt>
<trkpt lat="47.47913000" lon="7.55856098"><ele></ele><time>2014-6-19T4:22:27Z</time></trkpt>
<trkpt lat="47.47877402" lon="7.55843701"><ele></ele><time>2014-6-19T4:22:30Z</time></trkpt>
<trkpt lat="47.47843699" lon="7.55831396"><ele></ele><time>2014-6-19T4:22:33Z</time></trkpt>
<trkpt lat="47.47829701" lon="7.55825797"><ele></ele><time>2014-6-19T4:22:36Z</time></trkpt>
<trkpt lat="47.47819299" lon="7.55821900"><ele></ele><time>2014-6-19T4:22:39Z</time></trkpt>
<trkpt lat="47.47814898" lon="7.55822000"><ele></ele><time>2014-6-19T4:22:42Z</time></trkpt>
<trkpt lat="47.47810397" lon="7.55832897"><ele></ele><time>2014-6-19T4:22:45Z</time></trkpt>
<trkpt lat="47.47799803" lon="7.55888200"><ele></ele><time>2014-6-19T4:22:48Z</time></trkpt>
<trkpt lat="47.47798101" lon="7.55897001"><ele></ele><time>2014-6-19T4:22:51Z</time></trkpt>
<trkpt lat="47.47788504" lon="7.55946497"><ele></ele><time>2014-6-19T4:22:54Z</time></trkpt>
<trkpt lat="47.47776803" lon="7.56006000"><ele></ele><time>2014-6-19T4:22:57Z</time></trkpt>
<trkpt lat="47.47768404" lon="7.56049200"><ele></ele><time>2014-6-19T4:23:0Z</time></trkpt>
<trkpt lat="47.47766501" lon="7.56058303"><ele></ele><time>2014-6-19T4:23:3Z</time></trkpt>
<trkpt lat="47.47757600" lon="7.56104797"><ele></ele><time>2014-6-19T4:23:6Z</time></trkpt>
<trkpt lat="47.47746703" lon="7.56161903"><ele></ele><time>2014-6-19T4:23:9Z</time></trkpt>
<trkpt lat="47.47736000" lon="7.56217500"><ele></ele><time>2014-6-19T4:23:12Z</time></trkpt>
<trkpt lat="47.47729504" lon="7.56227600"><ele></ele><time>2014-6-19T4:23:15Z</time></trkpt>
<trkpt lat="47.47709597" lon="7.56221398"><ele></ele><time>2014-6-19T4:23:18Z</time></trkpt>
<trkpt lat="47.47703101" lon="7.56218104"><ele></ele><time>2014-6-19T4:23:21Z</time></trkpt>
<trkpt lat="47.47699798" lon="7.56216603"><ele></ele><time>2014-6-19T4:23:24Z</time></trkpt>
<trkpt lat="47.47666203" lon="7.56201801"><ele></ele><time>2014-6-19T4:23:27Z</time></trkpt>
<trkpt lat="47.47646397" lon="7.56193100"><ele></ele><time>2014-6-19T4:23:30Z</time></trkpt>
<trkpt lat="47.47630497" lon="7.56186797"><ele></ele><time>2014-6-19T4:23:33Z</time></trkpt>
<trkpt lat="47.47612501" lon="7.56205497"><ele></ele><time>2014-6-19T4:23:36Z</time></trkpt>
<trkpt lat="47.47599802" lon="7.56211901"><ele></ele><time>2014-6-19T4:23:39Z</time></trkpt>
<trkpt lat="47.47582401" lon="7.56206503"><ele></ele><time>2014-6-19T4:23:42Z</time></trkpt>
<trkpt lat="47.47558697" lon="7.56202899"><ele></ele><time>2014-6-19T4:23:45Z</time></trkpt>
<trkpt lat="47.47552704" lon="7.56211398"><ele></ele><time>2014-6-19T4:23:48Z</time></trkpt>
<trkpt lat="47.47549402" lon="7.56263802"><ele></ele><time>2014-6-19T4:23:51Z</time></trkpt>
<trkpt lat="47.47518296" lon="7.56269200"><ele></ele><time>2014-6-19T4:23:54Z</time></trkpt>
<trkpt lat="47.47490301" lon="7.56240400"><ele></ele><time>2014-6-19T4:23:57Z</time></trkpt>
<trkpt lat="47.47494098" lon="7.56205103"><ele></ele><time>2014-6-19T4:24:0Z</time></trkpt>
<trkpt lat="47.47499001" lon="7.56155298"><ele></ele><time>2014-6-19T4:24:3Z</time></trkpt>
<trkpt lat="47.47502798" lon="7.56112601"><ele></ele><time>2014-6-19T4:24:6Z</time></trkpt>
<trkpt lat="47.47503100" lon="7.56095401"><ele></ele><time>2014-6-19T4:24:9Z</time></trkpt>
<trkpt lat="47.47497501" lon="7.56084798"><ele></ele><time>2014-6-19T4:24:12Z</time></trkpt>
<trkpt lat="47.47494701" lon="7.56083800"><ele></ele><time>2014-6-19T4:24:15Z</time></trkpt>
<trkpt lat="47.47454904" lon="7.56073901"><ele></ele><time>2014-6-19T4:24:18Z</time></trkpt>
<trkpt lat="47.47436397" lon="7.56069400"><ele></ele><time>2014-6-19T4:24:21Z</time></trkpt>
<trkpt lat="47.47408904" lon="7.56058697"><ele></ele><time>2014-6-19T4:24:24Z</time></trkpt>
<trkpt lat="47.47419097" lon="7.56003502"><ele></ele><time>2014-6-19T4:24:27Z</time></trkpt>
<trkpt lat="47.47430597" lon="7.55955599"><ele></ele><time>2014-6-19T4:24:30Z</time></trkpt>
<trkpt lat="47.47441996" lon="7.55909801"><ele></ele><time>2014-6-19T4:24:33Z</time></trkpt>
<trkpt lat="47.47433304" lon="7.55899499"><ele></ele><time>2014-6-19T4:24:36Z</time></trkpt>
<trkpt lat="47.47407697" lon="7.55896700"><ele></ele><time>2014-6-19T4:24:39Z</time></trkpt>
<trkpt lat="47.47388301" lon="7.55893003"><ele></ele><time>2014-6-19T4:24:42Z</time></trkpt>
<trkpt lat="47.47378897" lon="7.55891402"><ele></ele><time>2014-6-19T4:24:45Z</time></trkpt>
<trkpt lat="47.47360700" lon="7.55887496"><ele></ele><time>2014-6-19T4:24:48Z</time></trkpt>
<trkpt lat="47.47350097" lon="7.55885602"><ele></ele><time>2014-6-19T4:24:51Z</time></trkpt>
<trkpt lat="47.47339703" lon="7.55883004"><ele></ele><time>2014-6-19T4:24:54Z</time></trkpt>
<trkpt lat="47.47305899" lon="7.55878000"><ele></ele><time>2014-6-19T4:24:57Z</time></trkpt>
<trkpt lat="47.47280602" lon="7.55881696"><ele></ele><time>2014-6-19T4:25:0Z</time></trkpt>
<trkpt lat="47.47264098" lon="7.55883800"><ele></ele><time>2014-6-19T4:25:3Z</time></trkpt>
<trkpt lat="47.47247502" lon="7.55884102"><ele></ele><time>2014-6-19T4:25:6Z</time></trkpt>
<trkpt lat="47.47242498" lon="7.55884303"><ele></ele><time>2014-6-19T4:25:9Z</time></trkpt>
<trkpt lat="47.47206196" lon="7.55888703"><ele></ele><time>2014-6-19T4:25:12Z</time></trkpt>
<trkpt lat="47.47176499" lon="7.55885996"><ele></ele><time>2014-6-19T4:25:15Z</time></trkpt>
<trkpt lat="47.47164102" lon="7.55884102"><ele></ele><time>2014-6-19T4:25:18Z</time></trkpt>
<trkpt lat="47.47150700" lon="7.55881998"><ele></ele><time>2014-6-19T4:25:21Z</time></trkpt>
<trkpt lat="47.47148001" lon="7.55881797"><ele></ele><time>2014-6-19T4:25:24Z</time></trkpt>
<trkpt lat="47.47130700" lon="7.55878603"><ele></ele><time>2014-6-19T4:25:27Z</time></trkpt>
<trkpt lat="47.47116200" lon="7.55871696"><ele></ele><time>2014-6-19T4:25:30Z</time></trkpt>
<trkpt lat="47.47097097" lon="7.55845897"><ele></ele><time>2014-6-19T4:25:33Z</time></trkpt>
<trkpt lat="47.47072103" lon="7.55807701"><ele></ele><time>2014-6-19T4:25:36Z</time></trkpt>
<trkpt lat="47.47046798" lon="7.55768096"><ele></ele><time>2014-6-19T4:25:39Z</time></trkpt>
<trkpt lat="47.47022096" lon="7.55728399"><ele></ele><time>2014-6-19T4:25:42Z</time></trkpt>
<trkpt lat="47.47005701" lon="7.55696598"><ele></ele><time>2014-6-19T4:25:45Z</time></trkpt>
<trkpt lat="47.46998501" lon="7.55671302"><ele></ele><time>2014-6-19T4:25:48Z</time></trkpt>
<trkpt lat="47.47023202" lon="7.55632301"><ele></ele><time>2014-6-19T4:25:51Z</time></trkpt>
<trkpt lat="47.47046504" lon="7.55587198"><ele></ele><time>2014-6-19T4:25:54Z</time></trkpt>
<trkpt lat="47.47049899" lon="7.55546101"><ele></ele><time>2014-6-19T4:25:57Z</time></trkpt>
<trkpt lat="47.47051399" lon="7.55535498"><ele></ele><time>2014-6-19T4:26:0Z</time></trkpt>
<trkpt lat="47.47052598" lon="7.55532104"><ele></ele><time>2014-6-19T4:26:3Z</time></trkpt>
<trkpt lat="47.47066302" lon="7.55493002"><ele></ele><time>2014-6-19T4:26:6Z</time></trkpt>
<trkpt lat="47.47075296" lon="7.55440397"><ele></ele><time>2014-6-19T4:26:9Z</time></trkpt>
<trkpt lat="47.47081197" lon="7.55396300"><ele></ele><time>2014-6-19T4:26:12Z</time></trkpt>
<trkpt lat="47.47085597" lon="7.55333000"><ele></ele><time>2014-6-19T4:26:15Z</time></trkpt>
<trkpt lat="47.47086997" lon="7.55296396"><ele></ele><time>2014-6-19T4:26:18Z</time></trkpt>
<trkpt lat="47.47091498" lon="7.55239198"><ele></ele><time>2014-6-19T4:26:21Z</time></trkpt>
<trkpt lat="47.47093200" lon="7.55211202"><ele></ele><time>2014-6-19T4:26:24Z</time></trkpt>
<trkpt lat="47.47086704" lon="7.55158698"><ele></ele><time>2014-6-19T4:26:27Z</time></trkpt>
<trkpt lat="47.47094801" lon="7.55105004"><ele></ele><time>2014-6-19T4:26:30Z</time></trkpt>
<trkpt lat="47.47108002" lon="7.55055299"><ele></ele><time>2014-6-19T4:26:33Z</time></trkpt>
<trkpt lat="47.47110399" lon="7.55043799"><ele></ele><time>2014-6-19T4:26:36Z</time></trkpt>
<trkpt lat="47.47113601" lon="7.55020799"><ele></ele><time>2014-6-19T4:26:39Z</time></trkpt>
<trkpt lat="47.47120600" lon="7.54981102"><ele></ele><time>2014-6-19T4:26:42Z</time></trkpt>
<trkpt lat="47.47127096" lon="7.54941699"><ele></ele><time>2014-6-19T4:26:45Z</time></trkpt>
<trkpt lat="47.47099503" lon="7.54937902"><ele></ele><time>2014-6-19T4:26:48Z</time></trkpt>
<trkpt lat="47.47082898" lon="7.54965001"><ele></ele><time>2014-6-19T4:26:51Z</time></trkpt>
<trkpt lat="47.47080401" lon="7.54968798"><ele></ele><time>2014-6-19T4:26:54Z</time></trkpt>
<trkpt lat="47.47078003" lon="7.54974104"><ele></ele><time>2014-6-19T4:26:57Z</time></trkpt>
<trkpt lat="47.47070996" lon="7.54987104"><ele></ele><time>2014-6-19T4:27:0Z</time></trkpt>
<trkpt lat="47.47053402" lon="7.55028200"><ele></ele><time>2014-6-19T4:27:3Z</time></trkpt>
<trkpt lat="47.47050100" lon="7.55034403"><ele></ele><time>2014-6-19T4:27:6Z</time></trkpt>
<trkpt lat="47.47040100" lon="7.55053204"><ele></ele><time>2014-6-19T4:27:9Z</time></trkpt>
<trkpt lat="47.47037804" lon="7.55060303"><ele></ele><time>2014-6-19T4:27:12Z</time></trkpt>
<trkpt lat="47.47017603" lon="7.55100100"><ele></ele><time>2014-6-19T4:27:15Z</time></trkpt>
<trkpt lat="47.47015701" lon="7.55105599"><ele></ele><time>2014-6-19T4:27:18Z</time></trkpt>
<trkpt lat="47.47002902" lon="7.55131298"><ele></ele><time>2014-6-19T4:27:21Z</time></trkpt>
<trkpt lat="47.46984302" lon="7.55178999"><ele></ele><time>2014-6-19T4:27:24Z</time></trkpt>
<trkpt lat="47.46972903" lon="7.55224496"><ele></ele><time>2014-6-19T4:27:27Z</time></trkpt>
<trkpt lat="47.46959098" lon="7.55277000"><ele></ele><time>2014-6-19T4:27:30Z</time></trkpt>
<trkpt lat="47.46946299" lon="7.55327300"><ele></ele><time>2014-6-19T4:27:33Z</time></trkpt>
<trkpt lat="47.46933097" lon="7.55374800"><ele></ele><time>2014-6-19T4:27:36Z</time></trkpt>
<trkpt lat="47.46927104" lon="7.55416802"><ele></ele><time>2014-6-19T4:27:39Z</time></trkpt>
<trkpt lat="47.46923097" lon="7.55450598"><ele></ele><time>2014-6-19T4:27:42Z</time></trkpt>
<trkpt lat="47.46922301" lon="7.55460002"><ele></ele><time>2014-6-19T4:27:45Z</time></trkpt>
<trkpt lat="47.46918102" lon="7.55494997"><ele></ele><time>2014-6-19T4:27:48Z</time></trkpt>
<trkpt lat="47.46911497" lon="7.55505499"><ele></ele><time>2014-6-19T4:27:51Z</time></trkpt>
<trkpt lat="47.46883803" lon="7.55521702"><ele></ele><time>2014-6-19T4:27:54Z</time></trkpt>
<trkpt lat="47.46865497" lon="7.55525599"><ele></ele><time>2014-6-19T4:27:57Z</time></trkpt>
<trkpt lat="47.46859303" lon="7.55526404"><ele></ele><time>2014-6-19T4:28:0Z</time></trkpt>
<trkpt lat="47.46822699" lon="7.55536001"><ele></ele><time>2014-6-19T4:28:3Z</time></trkpt>
<trkpt lat="47.46796397" lon="7.55551700"><ele></ele><time>2014-6-19T4:28:6Z</time></trkpt>
<trkpt lat="47.46790001" lon="7.55554902"><ele></ele><time>2014-6-19T4:28:9Z</time></trkpt>
<trkpt lat="47.46789297" lon="7.55555598"><ele></ele><time>2014-6-19T4:28:12Z</time></trkpt>
<trkpt lat="47.46780102" lon="7.55567500"><ele></ele><time>2014-6-19T4:28:15Z</time></trkpt>
<trkpt lat="47.46768602" lon="7.55582697"><ele></ele><time>2014-6-19T4:28:18Z</time></trkpt>
<trkpt lat="47.46752299" lon="7.55609402"><ele></ele><time>2014-6-19T4:28:21Z</time></trkpt>
<trkpt lat="47.46735997" lon="7.55644304"><ele></ele><time>2014-6-19T4:28:24Z</time></trkpt>
<trkpt lat="47.46728604" lon="7.55658503"><ele></ele><time>2014-6-19T4:28:27Z</time></trkpt>
<trkpt lat="47.46716903" lon="7.55674797"><ele></ele><time>2014-6-19T4:28:30Z</time></trkpt>
<trkpt lat="47.46710096" lon="7.55681402"><ele></ele><time>2014-6-19T4:28:33Z</time></trkpt>
<trkpt lat="47.46705101" lon="7.55687504"><ele></ele><time>2014-6-19T4:28:36Z</time></trkpt>
<trkpt lat="47.46700499" lon="7.55693204"><ele></ele><time>2014-6-19T4:28:39Z</time></trkpt>
<trkpt lat="47.46685697" lon="7.55718903"><ele></ele><time>2014-6-19T4:28:42Z</time></trkpt>
<trkpt lat="47.46680601" lon="7.55724401"><ele></ele><time>2014-6-19T4:28:45Z</time></trkpt>
<trkpt lat="47.46661699" lon="7.55742297"><ele></ele><time>2014-6-19T4:28:48Z</time></trkpt>
<trkpt lat="47.46652999" lon="7.55749698"><ele></ele><time>2014-6-19T4:28:51Z</time></trkpt>
<trkpt lat="47.46650401" lon="7.55753403"><ele></ele><time>2014-6-19T4:28:54Z</time></trkpt>
<trkpt lat="47.46648196" lon="7.55755800"><ele></ele><time>2014-6-19T4:28:57Z</time></trkpt>
<trkpt lat="47.46630603" lon="7.55805002"><ele></ele><time>2014-6-19T4:29:0Z</time></trkpt>
<trkpt lat="47.46612598" lon="7.55851597"><ele></ele><time>2014-6-19T4:29:3Z</time></trkpt>
<trkpt lat="47.46580102" lon="7.55876499"><ele></ele><time>2014-6-19T4:29:6Z</time></trkpt>
<trkpt lat="47.46545702" lon="7.55897496"><ele></ele><time>2014-6-19T4:29:9Z</time></trkpt>
<trkpt lat="47.46510398" lon="7.55910899"><ele></ele><time>2014-6-19T4:29:12Z</time></trkpt>
<trkpt lat="47.46472696" lon="7.55920697"><ele></ele><time>2014-6-19T4:29:15Z</time></trkpt>
<trkpt lat="47.46435304" lon="7.55920898"><ele></ele><time>2014-6-19T4:29:18Z</time></trkpt>
<trkpt lat="47.46397996" lon="7.55912198"><ele></ele><time>2014-6-19T4:29:21Z</time></trkpt>
<trkpt lat="47.46363396" lon="7.55894403"><ele></ele><time>2014-6-19T4:29:24Z</time></trkpt>
<trkpt lat="47.46329801" lon="7.55872199"><ele></ele><time>2014-6-19T4:29:27Z</time></trkpt>
<trkpt lat="47.46295896" lon="7.55850297"><ele></ele><time>2014-6-19T4:29:30Z</time></trkpt>
<trkpt lat="47.46266099" lon="7.55820801"><ele></ele><time>2014-6-19T4:29:33Z</time></trkpt>
<trkpt lat="47.46252302" lon="7.55800903"><ele></ele><time>2014-6-19T4:29:36Z</time></trkpt>
<trkpt lat="47.46246200" lon="7.55798103"><ele></ele><time>2014-6-19T4:29:39Z</time></trkpt>
<trkpt lat="47.46215497" lon="7.55763402"><ele></ele><time>2014-6-19T4:29:42Z</time></trkpt>
<trkpt lat="47.46196001" lon="7.55734602"><ele></ele><time>2014-6-19T4:29:45Z</time></trkpt>
<trkpt lat="47.46171400" lon="7.55694000"><ele></ele><time>2014-6-19T4:29:48Z</time></trkpt>
<trkpt lat="47.46146900" lon="7.55648998"><ele></ele><time>2014-6-19T4:29:51Z</time></trkpt>
<trkpt lat="47.46127102" lon="7.55600198"><ele></ele><time>2014-6-19T4:29:54Z</time></trkpt>
<trkpt lat="47.46114696" lon="7.55558096"><ele></ele><time>2014-6-19T4:29:57Z</time></trkpt>
<trkpt lat="47.46090498" lon="7.55514602"><ele></ele><time>2014-6-19T4:30:0Z</time></trkpt>
<trkpt lat="47.46072200" lon="7.55474201"><ele></ele><time>2014-6-19T4:30:3Z</time></trkpt>
<trkpt lat="47.46066601" lon="7.55430398"><ele></ele><time>2014-6-19T4:30:6Z</time></trkpt>
<trkpt lat="47.46062301" lon="7.55418898"><ele></ele><time>2014-6-19T4:30:9Z</time></trkpt>
<trkpt lat="47.46059200" lon="7.55402301"><ele></ele><time>2014-6-19T4:30:12Z</time></trkpt>
<trkpt lat="47.46059803" lon="7.55345698"><ele></ele><time>2014-6-19T4:30:15Z</time></trkpt>
<trkpt lat="47.46059602" lon="7.55335900"><ele></ele><time>2014-6-19T4:30:18Z</time></trkpt>
<trkpt lat="47.46060901" lon="7.55298701"><ele></ele><time>2014-6-19T4:30:21Z</time></trkpt>
<trkpt lat="47.46060398" lon="7.55271703"><ele></ele><time>2014-6-19T4:30:24Z</time></trkpt>
<trkpt lat="47.46060097" lon="7.55217204"><ele></ele><time>2014-6-19T4:30:27Z</time></trkpt>
<trkpt lat="47.46062201" lon="7.55181497"><ele></ele><time>2014-6-19T4:30:30Z</time></trkpt>
<trkpt lat="47.46066601" lon="7.55102104"><ele></ele><time>2014-6-19T4:30:33Z</time></trkpt>
<trkpt lat="47.46066601" lon="7.55094199"><ele></ele><time>2014-6-19T4:30:36Z</time></trkpt>
<trkpt lat="47.46075000" lon="7.55050999"><ele></ele><time>2014-6-19T4:30:39Z</time></trkpt>
<trkpt lat="47.46083700" lon="7.54988202"><ele></ele><time>2014-6-19T4:30:42Z</time></trkpt>
<trkpt lat="47.46084203" lon="7.54983298"><ele></ele><time>2014-6-19T4:30:45Z</time></trkpt>
<trkpt lat="47.46089702" lon="7.54987699"><ele></ele><time>2014-6-19T4:30:48Z</time></trkpt>
<trkpt lat="47.46089903" lon="7.55010699"><ele></ele><time>2014-6-19T4:30:51Z</time></trkpt>
<trkpt lat="47.46092300" lon="7.55021897"><ele></ele><time>2014-6-19T4:30:54Z</time></trkpt>
<trkpt lat="47.46092501" lon="7.55033003"><ele></ele><time>2014-6-19T4:30:57Z</time></trkpt>
<trkpt lat="47.46092903" lon="7.55038401"><ele></ele><time>2014-6-19T4:31:0Z</time></trkpt>
<trkpt lat="47.46092702" lon="7.55041804"><ele></ele><time>2014-6-19T4:31:3Z</time></trkpt>
<trkpt lat="47.46093096" lon="7.55051200"><ele></ele><time>2014-6-19T4:31:6Z</time></trkpt>
<trkpt lat="47.46093004" lon="7.55063899"><ele></ele><time>2014-6-19T4:31:9Z</time></trkpt>
<trkpt lat="47.46093901" lon="7.55077897"><ele></ele><time>2014-6-19T4:31:12Z</time></trkpt>
<trkpt lat="47.46093901" lon="7.55089698"><ele></ele><time>2014-6-19T4:31:15Z</time></trkpt>
<trkpt lat="47.46098402" lon="7.55120904"><ele></ele><time>2014-6-19T4:31:18Z</time></trkpt>
<trkpt lat="47.46101101" lon="7.55141398"><ele></ele><time>2014-6-19T4:31:21Z</time></trkpt>
<trkpt lat="47.46103196" lon="7.55151599"><ele></ele><time>2014-6-19T4:31:24Z</time></trkpt>
<trkpt lat="47.46108402" lon="7.55184598"><ele></ele><time>2014-6-19T4:31:27Z</time></trkpt>
<trkpt lat="47.46108896" lon="7.55192997"><ele></ele><time>2014-6-19T4:31:30Z</time></trkpt>
<trkpt lat="47.46119499" lon="7.55247496"><ele></ele><time>2014-6-19T4:31:33Z</time></trkpt>
<trkpt lat="47.46137797" lon="7.55293496"><ele></ele><time>2014-6-19T4:31:36Z</time></trkpt>
<trkpt lat="47.46155499" lon="7.55340301"><ele></ele><time>2014-6-19T4:31:39Z</time></trkpt>
<trkpt lat="47.46159900" lon="7.55352798"><ele></ele><time>2014-6-19T4:31:42Z</time></trkpt>
<trkpt lat="47.46188197" lon="7.55389896"><ele></ele><time>2014-6-19T4:31:45Z</time></trkpt>
<trkpt lat="47.46208398" lon="7.55399502"><ele></ele><time>2014-6-19T4:31:48Z</time></trkpt>
<trkpt lat="47.46214198" lon="7.55399996"><ele></ele><time>2014-6-19T4:31:51Z</time></trkpt>
<trkpt lat="47.46220602" lon="7.55399301"><ele></ele><time>2014-6-19T4:31:54Z</time></trkpt>
<trkpt lat="47.46240299" lon="7.55374398"><ele></ele><time>2014-6-19T4:31:57Z</time></trkpt>
<trkpt lat="47.46244499" lon="7.55362596"><ele></ele><time>2014-6-19T4:32:0Z</time></trkpt>
<trkpt lat="47.46244901" lon="7.55325004"><ele></ele><time>2014-6-19T4:32:3Z</time></trkpt>
<trkpt lat="47.46245102" lon="7.55315197"><ele></ele><time>2014-6-19T4:32:6Z</time></trkpt>
<trkpt lat="47.46245898" lon="7.55302196"><ele></ele><time>2014-6-19T4:32:9Z</time></trkpt>
<trkpt lat="47.46250500" lon="7.55259197"><ele></ele><time>2014-6-19T4:32:12Z</time></trkpt>
<trkpt lat="47.46250902" lon="7.55217296"><ele></ele><time>2014-6-19T4:32:15Z</time></trkpt>
<trkpt lat="47.46251397" lon="7.55200197"><ele></ele><time>2014-6-19T4:32:18Z</time></trkpt>
<trkpt lat="47.46251900" lon="7.55184104"><ele></ele><time>2014-6-19T4:32:21Z</time></trkpt>
<trkpt lat="47.46255898" lon="7.55127903"><ele></ele><time>2014-6-19T4:32:24Z</time></trkpt>
<trkpt lat="47.46258203" lon="7.55088299"><ele></ele><time>2014-6-19T4:32:27Z</time></trkpt>
<trkpt lat="47.46258798" lon="7.55082398"><ele></ele><time>2014-6-19T4:32:30Z</time></trkpt>
<trkpt lat="47.46262704" lon="7.55050303"><ele></ele><time>2014-6-19T4:32:33Z</time></trkpt>
<trkpt lat="47.46262201" lon="7.55044302"><ele></ele><time>2014-6-19T4:32:36Z</time></trkpt>
<trkpt lat="47.46270097" lon="7.54990197"><ele></ele><time>2014-6-19T4:32:39Z</time></trkpt>
<trkpt lat="47.46269703" lon="7.54968898"><ele></ele><time>2014-6-19T4:32:42Z</time></trkpt>
<trkpt lat="47.46271002" lon="7.54948103"><ele></ele><time>2014-6-19T4:32:45Z</time></trkpt>
<trkpt lat="47.46271899" lon="7.54922303"><ele></ele><time>2014-6-19T4:32:48Z</time></trkpt>
<trkpt lat="47.46269703" lon="7.54888700"><ele></ele><time>2014-6-19T4:32:51Z</time></trkpt>
<trkpt lat="47.46268102" lon="7.54839700"><ele></ele><time>2014-6-19T4:32:54Z</time></trkpt>
<trkpt lat="47.46268001" lon="7.54825300"><ele></ele><time>2014-6-19T4:32:57Z</time></trkpt>
<trkpt lat="47.46266903" lon="7.54819097"><ele></ele><time>2014-6-19T4:33:0Z</time></trkpt>
<trkpt lat="47.46266501" lon="7.54809198"><ele></ele><time>2014-6-19T4:33:3Z</time></trkpt>
<trkpt lat="47.46264799" lon="7.54803800"><ele></ele><time>2014-6-19T4:33:6Z</time></trkpt>
<trkpt lat="47.46264003" lon="7.54796600"><ele></ele><time>2014-6-19T4:33:9Z</time></trkpt>
<trkpt lat="47.46257901" lon="7.54748999"><ele></ele><time>2014-6-19T4:33:12Z</time></trkpt>
<trkpt lat="47.46257700" lon="7.54747096"><ele></ele><time>2014-6-19T4:33:15Z</time></trkpt>
<trkpt lat="47.46248698" lon="7.54690502"><ele></ele><time>2014-6-19T4:33:18Z</time></trkpt>
<trkpt lat="47.46241196" lon="7.54654996"><ele></ele><time>2014-6-19T4:33:21Z</time></trkpt>
<trkpt lat="47.46235496" lon="7.54629398"><ele></ele><time>2014-6-19T4:33:24Z</time></trkpt>
<trkpt lat="47.46233300" lon="7.54619700"><ele></ele><time>2014-6-19T4:33:27Z</time></trkpt>
<trkpt lat="47.46227198" lon="7.54593800"><ele></ele><time>2014-6-19T4:33:30Z</time></trkpt>
<trkpt lat="47.46216101" lon="7.54547901"><ele></ele><time>2014-6-19T4:33:33Z</time></trkpt>
<trkpt lat="47.46208800" lon="7.54528999"><ele></ele><time>2014-6-19T4:33:36Z</time></trkpt>
<trkpt lat="47.46206403" lon="7.54516703"><ele></ele><time>2014-6-19T4:33:39Z</time></trkpt>
<trkpt lat="47.46203704" lon="7.54490300"><ele></ele><time>2014-6-19T4:33:42Z</time></trkpt>
<trkpt lat="47.46202203" lon="7.54466504"><ele></ele><time>2014-6-19T4:33:45Z</time></trkpt>
<trkpt lat="47.46199303" lon="7.54455197"><ele></ele><time>2014-6-19T4:33:48Z</time></trkpt>
<trkpt lat="47.46197199" lon="7.54445096"><ele></ele><time>2014-6-19T4:33:51Z</time></trkpt>
<trkpt lat="47.46194098" lon="7.54421803"><ele></ele><time>2014-6-19T4:33:54Z</time></trkpt>
<trkpt lat="47.46181299" lon="7.54366600"><ele></ele><time>2014-6-19T4:33:57Z</time></trkpt>
<trkpt lat="47.46169103" lon="7.54332100"><ele></ele><time>2014-6-19T4:34:0Z</time></trkpt>
<trkpt lat="47.46158400" lon="7.54277802"><ele></ele><time>2014-6-19T4:34:3Z</time></trkpt>
<trkpt lat="47.46149104" lon="7.54240704"><ele></ele><time>2014-6-19T4:34:6Z</time></trkpt>
<trkpt lat="47.46143798" lon="7.54221199"><ele></ele><time>2014-6-19T4:34:9Z</time></trkpt>
<trkpt lat="47.46139297" lon="7.54203597"><ele></ele><time>2014-6-19T4:34:12Z</time></trkpt>
<trkpt lat="47.46126599" lon="7.54167899"><ele></ele><time>2014-6-19T4:34:15Z</time></trkpt>
<trkpt lat="47.46124696" lon="7.54159098"><ele></ele><time>2014-6-19T4:34:18Z</time></trkpt>
<trkpt lat="47.46110296" lon="7.54107499"><ele></ele><time>2014-6-19T4:34:21Z</time></trkpt>
<trkpt lat="47.46095703" lon="7.54054299"><ele></ele><time>2014-6-19T4:34:24Z</time></trkpt>
<trkpt lat="47.46080800" lon="7.54003303"><ele></ele><time>2014-6-19T4:34:27Z</time></trkpt>
<trkpt lat="47.46072804" lon="7.53975903"><ele></ele><time>2014-6-19T4:34:30Z</time></trkpt>
<trkpt lat="47.46062201" lon="7.53940003"><ele></ele><time>2014-6-19T4:34:33Z</time></trkpt>
<trkpt lat="47.46045596" lon="7.53879603"><ele></ele><time>2014-6-19T4:34:36Z</time></trkpt>
<trkpt lat="47.46030500" lon="7.53825598"><ele></ele><time>2014-6-19T4:34:39Z</time></trkpt>
<trkpt lat="47.46025597" lon="7.53806404"><ele></ele><time>2014-6-19T4:34:42Z</time></trkpt>
<trkpt lat="47.46007802" lon="7.53741796"><ele></ele><time>2014-6-19T4:34:45Z</time></trkpt>
<trkpt lat="47.46005204" lon="7.53732903"><ele></ele><time>2014-6-19T4:34:48Z</time></trkpt>
<trkpt lat="47.45989798" lon="7.53671003"><ele></ele><time>2014-6-19T4:34:51Z</time></trkpt>
<trkpt lat="47.45987300" lon="7.53654197"><ele></ele><time>2014-6-19T4:34:54Z</time></trkpt>
<trkpt lat="47.45977703" lon="7.53608499"><ele></ele><time>2014-6-19T4:34:57Z</time></trkpt>
<trkpt lat="47.45966102" lon="7.53548702"><ele></ele><time>2014-6-19T4:35:0Z</time></trkpt>
<trkpt lat="47.45965096" lon="7.53541402"><ele></ele><time>2014-6-19T4:35:3Z</time></trkpt>
<trkpt lat="47.45958500" lon="7.53514504"><ele></ele><time>2014-6-19T4:35:6Z</time></trkpt>
<trkpt lat="47.45946698" lon="7.53449704"><ele></ele><time>2014-6-19T4:35:9Z</time></trkpt>
<trkpt lat="47.45944904" lon="7.53440400"><ele></ele><time>2014-6-19T4:35:12Z</time></trkpt>
<trkpt lat="47.45942096" lon="7.53416603"><ele></ele><time>2014-6-19T4:35:15Z</time></trkpt>
<trkpt lat="47.45931996" lon="7.53347704"><ele></ele><time>2014-6-19T4:35:18Z</time></trkpt>
<trkpt lat="47.45930403" lon="7.53337696"><ele></ele><time>2014-6-19T4:35:21Z</time></trkpt>
<trkpt lat="47.45919398" lon="7.53267598"><ele></ele><time>2014-6-19T4:35:24Z</time></trkpt>
<trkpt lat="47.45915199" lon="7.53236501"><ele></ele><time>2014-6-19T4:35:27Z</time></trkpt>
<trkpt lat="47.45913598" lon="7.53215698"><ele></ele><time>2014-6-19T4:35:30Z</time></trkpt>
<trkpt lat="47.45910899" lon="7.53181902"><ele></ele><time>2014-6-19T4:35:33Z</time></trkpt>
<trkpt lat="47.45908401" lon="7.53152196"><ele></ele><time>2014-6-19T4:35:36Z</time></trkpt>
<trkpt lat="47.45904503" lon="7.53107797"><ele></ele><time>2014-6-19T4:35:39Z</time></trkpt>
<trkpt lat="47.45903196" lon="7.53090397"><ele></ele><time>2014-6-19T4:35:42Z</time></trkpt>
<trkpt lat="47.45901796" lon="7.53074898"><ele></ele><time>2014-6-19T4:35:45Z</time></trkpt>
<trkpt lat="47.45900002" lon="7.53051898"><ele></ele><time>2014-6-19T4:35:48Z</time></trkpt>
<trkpt lat="47.45897697" lon="7.53028898"><ele></ele><time>2014-6-19T4:35:51Z</time></trkpt>
<trkpt lat="47.45897303" lon="7.53008497"><ele></ele><time>2014-6-19T4:35:54Z</time></trkpt>
<trkpt lat="47.45893297" lon="7.52954199"><ele></ele><time>2014-6-19T4:35:57Z</time></trkpt>
<trkpt lat="47.45891998" lon="7.52939799"><ele></ele><time>2014-6-19T4:36:0Z</time></trkpt>
<trkpt lat="47.45891101" lon="7.52919598"><ele></ele><time>2014-6-19T4:36:3Z</time></trkpt>
<trkpt lat="47.45883297" lon="7.52860397"><ele></ele><time>2014-6-19T4:36:6Z</time></trkpt>
<trkpt lat="47.45878997" lon="7.52806996"><ele></ele><time>2014-6-19T4:36:9Z</time></trkpt>
<trkpt lat="47.45872401" lon="7.52752698"><ele></ele><time>2014-6-19T4:36:12Z</time></trkpt>
<trkpt lat="47.45866600" lon="7.52697503"><ele></ele><time>2014-6-19T4:36:15Z</time></trkpt>
<trkpt lat="47.45862099" lon="7.52642099"><ele></ele><time>2014-6-19T4:36:18Z</time></trkpt>
<trkpt lat="47.45860599" lon="7.52594297"><ele></ele><time>2014-6-19T4:36:21Z</time></trkpt>
<trkpt lat="47.45860800" lon="7.52546201"><ele></ele><time>2014-6-19T4:36:24Z</time></trkpt>
<trkpt lat="47.45858302" lon="7.52484502"><ele></ele><time>2014-6-19T4:36:27Z</time></trkpt>
<trkpt lat="47.45855704" lon="7.52428000"><ele></ele><time>2014-6-19T4:36:30Z</time></trkpt>
<trkpt lat="47.45858897" lon="7.52392201"><ele></ele><time>2014-6-19T4:36:33Z</time></trkpt>
<trkpt lat="47.45858797" lon="7.52376904"><ele></ele><time>2014-6-19T4:36:36Z</time></trkpt>
<trkpt lat="47.45858403" lon="7.52366200"><ele></ele><time>2014-6-19T4:36:39Z</time></trkpt>
<trkpt lat="47.45858998" lon="7.52308197"><ele></ele><time>2014-6-19T4:36:42Z</time></trkpt>
<trkpt lat="47.45858101" lon="7.52264100"><ele></ele><time>2014-6-19T4:36:45Z</time></trkpt>
<trkpt lat="47.45858302" lon="7.52236901"><ele></ele><time>2014-6-19T4:36:48Z</time></trkpt>
<trkpt lat="47.45858998" lon="7.52221503"><ele></ele><time>2014-6-19T4:36:51Z</time></trkpt>
<trkpt lat="47.45858101" lon="7.52199400"><ele></ele><time>2014-6-19T4:36:54Z</time></trkpt>
<trkpt lat="47.45858001" lon="7.52196500"><ele></ele><time>2014-6-19T4:36:57Z</time></trkpt>
<trkpt lat="47.45857498" lon="7.52137299"><ele></ele><time>2014-6-19T4:37:0Z</time></trkpt>
<trkpt lat="47.45856198" lon="7.52109798"><ele></ele><time>2014-6-19T4:37:3Z</time></trkpt>
<trkpt lat="47.45855997" lon="7.52077896"><ele></ele><time>2014-6-19T4:37:6Z</time></trkpt>
<trkpt lat="47.45855100" lon="7.52038501"><ele></ele><time>2014-6-19T4:37:9Z</time></trkpt>
<trkpt lat="47.45853500" lon="7.51979099"><ele></ele><time>2014-6-19T4:37:12Z</time></trkpt>
<trkpt lat="47.45853399" lon="7.51973701"><ele></ele><time>2014-6-19T4:37:15Z</time></trkpt>
<trkpt lat="47.45847599" lon="7.51931003"><ele></ele><time>2014-6-19T4:37:18Z</time></trkpt>
<trkpt lat="47.45848001" lon="7.51931900"><ele></ele><time>2014-6-19T4:37:21Z</time></trkpt>
<trkpt lat="47.45847900" lon="7.51932302"><ele></ele><time>2014-6-19T4:37:24Z</time></trkpt>
<trkpt lat="47.45845797" lon="7.51926200"><ele></ele><time>2014-6-19T4:37:27Z</time></trkpt>
<trkpt lat="47.45844397" lon="7.51920803"><ele></ele><time>2014-6-19T4:37:30Z</time></trkpt>
<trkpt lat="47.45842704" lon="7.51909596"><ele></ele><time>2014-6-19T4:37:33Z</time></trkpt>
<trkpt lat="47.45839602" lon="7.51883302"><ele></ele><time>2014-6-19T4:37:36Z</time></trkpt>
<trkpt lat="47.45830701" lon="7.51840202"><ele></ele><time>2014-6-19T4:37:39Z</time></trkpt>
<trkpt lat="47.45823400" lon="7.51814201"><ele></ele><time>2014-6-19T4:37:42Z</time></trkpt>
<trkpt lat="47.45799101" lon="7.51753299"><ele></ele><time>2014-6-19T4:37:45Z</time></trkpt>
<trkpt lat="47.45779504" lon="7.51706603"><ele></ele><time>2014-6-19T4:37:48Z</time></trkpt>
<trkpt lat="47.45768499" lon="7.51680996"><ele></ele><time>2014-6-19T4:37:51Z</time></trkpt>
<trkpt lat="47.45758197" lon="7.51652196"><ele></ele><time>2014-6-19T4:37:54Z</time></trkpt>
<trkpt lat="47.45741702" lon="7.51595300"><ele></ele><time>2014-6-19T4:37:57Z</time></trkpt>
<trkpt lat="47.45725097" lon="7.51537800"><ele></ele><time>2014-6-19T4:38:0Z</time></trkpt>
<trkpt lat="47.45707101" lon="7.51480803"><ele></ele><time>2014-6-19T4:38:3Z</time></trkpt>
<trkpt lat="47.45700999" lon="7.51456797"><ele></ele><time>2014-6-19T4:38:6Z</time></trkpt>
<trkpt lat="47.45684604" lon="7.51406698"><ele></ele><time>2014-6-19T4:38:9Z</time></trkpt>
<trkpt lat="47.45667203" lon="7.51352702"><ele></ele><time>2014-6-19T4:38:12Z</time></trkpt>
<trkpt lat="47.45662903" lon="7.51342200"><ele></ele><time>2014-6-19T4:38:15Z</time></trkpt>
<trkpt lat="47.45642804" lon="7.51268498"><ele></ele><time>2014-6-19T4:38:18Z</time></trkpt>
<trkpt lat="47.45625101" lon="7.51214703"><ele></ele><time>2014-6-19T4:38:21Z</time></trkpt>
<trkpt lat="47.45621304" lon="7.51203496"><ele></ele><time>2014-6-19T4:38:24Z</time></trkpt>
<trkpt lat="47.45605697" lon="7.51173003"><ele></ele><time>2014-6-19T4:38:27Z</time></trkpt>
<trkpt lat="47.45594800" lon="7.51152501"><ele></ele><time>2014-6-19T4:38:30Z</time></trkpt>
<trkpt lat="47.45589696" lon="7.51141998"><ele></ele><time>2014-6-19T4:38:33Z</time></trkpt>
<trkpt lat="47.45565103" lon="7.51084297"><ele></ele><time>2014-6-19T4:38:36Z</time></trkpt>
<trkpt lat="47.45550997" lon="7.51047400"><ele></ele><time>2014-6-19T4:38:39Z</time></trkpt>
<trkpt lat="47.45529003" lon="7.50996497"><ele></ele><time>2014-6-19T4:38:42Z</time></trkpt>
<trkpt lat="47.45506397" lon="7.50943800"><ele></ele><time>2014-6-19T4:38:45Z</time></trkpt>
<trkpt lat="47.45494201" lon="7.50914002"><ele></ele><time>2014-6-19T4:38:48Z</time></trkpt>
<trkpt lat="47.45472601" lon="7.50861003"><ele></ele><time>2014-6-19T4:38:51Z</time></trkpt>
<trkpt lat="47.45452099" lon="7.50818197"><ele></ele><time>2014-6-19T4:38:54Z</time></trkpt>
<trkpt lat="47.45428503" lon="7.50774996"><ele></ele><time>2014-6-19T4:38:57Z</time></trkpt>
<trkpt lat="47.45405202" lon="7.50732198"><ele></ele><time>2014-6-19T4:39:0Z</time></trkpt>
<trkpt lat="47.45380601" lon="7.50685796"><ele></ele><time>2014-6-19T4:39:3Z</time></trkpt>
<trkpt lat="47.45355698" lon="7.50646200"><ele></ele><time>2014-6-19T4:39:6Z</time></trkpt>
<trkpt lat="47.45341097" lon="7.50624700"><ele></ele><time>2014-6-19T4:39:9Z</time></trkpt>
<trkpt lat="47.45333503" lon="7.50608498"><ele></ele><time>2014-6-19T4:39:12Z</time></trkpt>
<trkpt lat="47.45325800" lon="7.50583797"><ele></ele><time>2014-6-19T4:39:15Z</time></trkpt>
<trkpt lat="47.45323202" lon="7.50577100"><ele></ele><time>2014-6-19T4:39:18Z</time></trkpt>
<trkpt lat="47.45307402" lon="7.50563303"><ele></ele><time>2014-6-19T4:39:21Z</time></trkpt>
<trkpt lat="47.45303596" lon="7.50546204"><ele></ele><time>2014-6-19T4:39:24Z</time></trkpt>
<trkpt lat="47.45303102" lon="7.50527102"><ele></ele><time>2014-6-19T4:39:27Z</time></trkpt>
<trkpt lat="47.45302297" lon="7.50514302"><ele></ele><time>2014-6-19T4:39:30Z</time></trkpt>
<trkpt lat="47.45301300" lon="7.50504797"><ele></ele><time>2014-6-19T4:39:33Z</time></trkpt>
<trkpt lat="47.45301702" lon="7.50495804"><ele></ele><time>2014-6-19T4:39:36Z</time></trkpt>
<trkpt lat="47.45301601" lon="7.50487103"><ele></ele><time>2014-6-19T4:39:39Z</time></trkpt>
<trkpt lat="47.45301501" lon="7.50481202"><ele></ele><time>2014-6-19T4:39:42Z</time></trkpt>
<trkpt lat="47.45300101" lon="7.50474304"><ele></ele><time>2014-6-19T4:39:45Z</time></trkpt>
<trkpt lat="47.45297796" lon="7.50461304"><ele></ele><time>2014-6-19T4:39:48Z</time></trkpt>
<trkpt lat="47.45296204" lon="7.50451698"><ele></ele><time>2014-6-19T4:39:51Z</time></trkpt>
<trkpt lat="47.45295198" lon="7.50437197"><ele></ele><time>2014-6-19T4:39:54Z</time></trkpt>
<trkpt lat="47.45291602" lon="7.50407400"><ele></ele><time>2014-6-19T4:39:57Z</time></trkpt>
<trkpt lat="47.45287000" lon="7.50352004"><ele></ele><time>2014-6-19T4:40:0Z</time></trkpt>
<trkpt lat="47.45286598" lon="7.50349699"><ele></ele><time>2014-6-19T4:40:3Z</time></trkpt>
<trkpt lat="47.45282700" lon="7.50294504"><ele></ele><time>2014-6-19T4:40:6Z</time></trkpt>
<trkpt lat="47.45293203" lon="7.50243802"><ele></ele><time>2014-6-19T4:40:9Z</time></trkpt>
<trkpt lat="47.45314904" lon="7.50211297"><ele></ele><time>2014-6-19T4:40:12Z</time></trkpt>
<trkpt lat="47.45325297" lon="7.50198397"><ele></ele><time>2014-6-19T4:40:15Z</time></trkpt>
<trkpt lat="47.45333796" lon="7.50188003"><ele></ele><time>2014-6-19T4:40:18Z</time></trkpt>
<trkpt lat="47.45340896" lon="7.50178901"><ele></ele><time>2014-6-19T4:40:21Z</time></trkpt>
<trkpt lat="47.45347803" lon="7.50171399"><ele></ele><time>2014-6-19T4:40:24Z</time></trkpt>
<trkpt lat="47.45352698" lon="7.50164400"><ele></ele><time>2014-6-19T4:40:27Z</time></trkpt>
<trkpt lat="47.45363804" lon="7.50149304"><ele></ele><time>2014-6-19T4:40:30Z</time></trkpt>
<trkpt lat="47.45384498" lon="7.50130503"><ele></ele><time>2014-6-19T4:40:33Z</time></trkpt>
<trkpt lat="47.45419501" lon="7.50115198"><ele></ele><time>2014-6-19T4:40:36Z</time></trkpt>
<trkpt lat="47.45452400" lon="7.50105701"><ele></ele><time>2014-6-19T4:40:39Z</time></trkpt>
<trkpt lat="47.45460497" lon="7.50103103"><ele></ele><time>2014-6-19T4:40:42Z</time></trkpt>
<trkpt lat="47.45494402" lon="7.50090698"><ele></ele><time>2014-6-19T4:40:45Z</time></trkpt>
<trkpt lat="47.45529598" lon="7.50072400"><ele></ele><time>2014-6-19T4:40:48Z</time></trkpt>
<trkpt lat="47.45535398" lon="7.50068603"><ele></ele><time>2014-6-19T4:40:51Z</time></trkpt>
<trkpt lat="47.45550997" lon="7.50064001"><ele></ele><time>2014-6-19T4:40:54Z</time></trkpt>
<trkpt lat="47.45560200" lon="7.50061898"><ele></ele><time>2014-6-19T4:40:57Z</time></trkpt>
<trkpt lat="47.45587399" lon="7.50059702"><ele></ele><time>2014-6-19T4:41:0Z</time></trkpt>
<trkpt lat="47.45612897" lon="7.50062702"><ele></ele><time>2014-6-19T4:41:3Z</time></trkpt>
<trkpt lat="47.45623198" lon="7.50064697"><ele></ele><time>2014-6-19T4:41:6Z</time></trkpt>
<trkpt lat="47.45628303" lon="7.50062300"><ele></ele><time>2014-6-19T4:41:9Z</time></trkpt>
<trkpt lat="47.45658897" lon="7.50058503"><ele></ele><time>2014-6-19T4:41:12Z</time></trkpt>
<trkpt lat="47.45673004" lon="7.50047104"><ele></ele><time>2014-6-19T4:41:15Z</time></trkpt>
<trkpt lat="47.45688301" lon="7.50013903"><ele></ele><time>2014-6-19T4:41:18Z</time></trkpt>
<trkpt lat="47.45702500" lon="7.49979696"><ele></ele><time>2014-6-19T4:41:21Z</time></trkpt>
<trkpt lat="47.45706003" lon="7.49968599"><ele></ele><time>2014-6-19T4:41:24Z</time></trkpt>
<trkpt lat="47.45710999" lon="7.49957702"><ele></ele><time>2014-6-19T4:41:27Z</time></trkpt>
<trkpt lat="47.45713698" lon="7.49949496"><ele></ele><time>2014-6-19T4:41:30Z</time></trkpt>
<trkpt lat="47.45717796" lon="7.49941802"><ele></ele><time>2014-6-19T4:41:33Z</time></trkpt>
<trkpt lat="47.45736597" lon="7.49892801"><ele></ele><time>2014-6-19T4:41:36Z</time></trkpt>
<trkpt lat="47.45746798" lon="7.49841403"><ele></ele><time>2014-6-19T4:41:39Z</time></trkpt>
<trkpt lat="47.45752397" lon="7.49801204"><ele></ele><time>2014-6-19T4:41:42Z</time></trkpt>
<trkpt lat="47.45761902" lon="7.49746897"><ele></ele><time>2014-6-19T4:41:45Z</time></trkpt>
<trkpt lat="47.45766303" lon="7.49694301"><ele></ele><time>2014-6-19T4:41:48Z</time></trkpt>
<trkpt lat="47.45752296" lon="7.49643196"><ele></ele><time>2014-6-19T4:41:51Z</time></trkpt>
<trkpt lat="47.45734602" lon="7.49600600"><ele></ele><time>2014-6-19T4:41:54Z</time></trkpt>
<trkpt lat="47.45730001" lon="7.49593601"><ele></ele><time>2014-6-19T4:41:57Z</time></trkpt>
<trkpt lat="47.45721904" lon="7.49580097"><ele></ele><time>2014-6-19T4:42:0Z</time></trkpt>
<trkpt lat="47.45710496" lon="7.49569301"><ele></ele><time>2014-6-19T4:42:3Z</time></trkpt>
<trkpt lat="47.45696196" lon="7.49561196"><ele></ele><time>2014-6-19T4:42:6Z</time></trkpt>
<trkpt lat="47.45676801" lon="7.49545799"><ele></ele><time>2014-6-19T4:42:9Z</time></trkpt>
<trkpt lat="47.45668402" lon="7.49537903"><ele></ele><time>2014-6-19T4:42:12Z</time></trkpt>
<trkpt lat="47.45664203" lon="7.49534098"><ele></ele><time>2014-6-19T4:42:15Z</time></trkpt>
<trkpt lat="47.45660196" lon="7.49529999"><ele></ele><time>2014-6-19T4:42:18Z</time></trkpt>
<trkpt lat="47.45643700" lon="7.49471904"><ele></ele><time>2014-6-19T4:42:21Z</time></trkpt>
<trkpt lat="47.45636601" lon="7.49446901"><ele></ele><time>2014-6-19T4:42:24Z</time></trkpt>
<trkpt lat="47.45636500" lon="7.49432500"><ele></ele><time>2014-6-19T4:42:27Z</time></trkpt>
<trkpt lat="47.45624900" lon="7.49382402"><ele></ele><time>2014-6-19T4:42:30Z</time></trkpt>
<trkpt lat="47.45604498" lon="7.49335002"><ele></ele><time>2014-6-19T4:42:33Z</time></trkpt>
<trkpt lat="47.45602403" lon="7.49329797"><ele></ele><time>2014-6-19T4:42:36Z</time></trkpt>
<trkpt lat="47.45589998" lon="7.49296001"><ele></ele><time>2014-6-19T4:42:39Z</time></trkpt>
<trkpt lat="47.45578799" lon="7.49259196"><ele></ele><time>2014-6-19T4:42:42Z</time></trkpt>
<trkpt lat="47.45574298" lon="7.49236498"><ele></ele><time>2014-6-19T4:42:45Z</time></trkpt>
<trkpt lat="47.45591003" lon="7.49257796"><ele></ele><time>2014-6-19T4:42:48Z</time></trkpt>
<trkpt lat="47.45598103" lon="7.49270604"><ele></ele><time>2014-6-19T4:42:51Z</time></trkpt>
<trkpt lat="47.45612000" lon="7.49287301"><ele></ele><time>2014-6-19T4:42:54Z</time></trkpt>
<trkpt lat="47.45628797" lon="7.49256900"><ele></ele><time>2014-6-19T4:42:57Z</time></trkpt>
<trkpt lat="47.45624900" lon="7.49236599"><ele></ele><time>2014-6-19T4:43:0Z</time></trkpt>
<trkpt lat="47.45628797" lon="7.49203800"><ele></ele><time>2014-6-19T4:43:3Z</time></trkpt>
<trkpt lat="47.45648503" lon="7.49140299"><ele></ele><time>2014-6-19T4:43:6Z</time></trkpt>
<trkpt lat="47.45656701" lon="7.49102899"><ele></ele><time>2014-6-19T4:43:9Z</time></trkpt>
<trkpt lat="47.45652300" lon="7.49044502"><ele></ele><time>2014-6-19T4:43:12Z</time></trkpt>
<trkpt lat="47.45643499" lon="7.49015702"><ele></ele><time>2014-6-19T4:43:15Z</time></trkpt>
<trkpt lat="47.45623299" lon="7.48949904"><ele></ele><time>2014-6-19T4:43:18Z</time></trkpt>
<trkpt lat="47.45612897" lon="7.48924197"><ele></ele><time>2014-6-19T4:43:21Z</time></trkpt>
<trkpt lat="47.45594901" lon="7.48873503"><ele></ele><time>2014-6-19T4:43:24Z</time></trkpt>
<trkpt lat="47.45581096" lon="7.48822499"><ele></ele><time>2014-6-19T4:43:27Z</time></trkpt>
<trkpt lat="47.45577601" lon="7.48810102"><ele></ele><time>2014-6-19T4:43:30Z</time></trkpt>
<trkpt lat="47.45557199" lon="7.48755796"><ele></ele><time>2014-6-19T4:43:33Z</time></trkpt>
<trkpt lat="47.45552296" lon="7.48746199"><ele></ele><time>2014-6-19T4:43:36Z</time></trkpt>
<trkpt lat="47.45528801" lon="7.48686704"><ele></ele><time>2014-6-19T4:43:39Z</time></trkpt>
<trkpt lat="47.45507302" lon="7.48640796"><ele></ele><time>2014-6-19T4:43:42Z</time></trkpt>
<trkpt lat="47.45498300" lon="7.48623203"><ele></ele><time>2014-6-19T4:43:45Z</time></trkpt>
<trkpt lat="47.45490002" lon="7.48615902"><ele></ele><time>2014-6-19T4:43:48Z</time></trkpt>
<trkpt lat="47.45478803" lon="7.48594604"><ele></ele><time>2014-6-19T4:43:51Z</time></trkpt>
<trkpt lat="47.45475601" lon="7.48588904"><ele></ele><time>2014-6-19T4:43:54Z</time></trkpt>
<trkpt lat="47.45471897" lon="7.48583003"><ele></ele><time>2014-6-19T4:43:57Z</time></trkpt>
<trkpt lat="47.45469701" lon="7.48580002"><ele></ele><time>2014-6-19T4:44:0Z</time></trkpt>
<trkpt lat="47.45456097" lon="7.48551403"><ele></ele><time>2014-6-19T4:44:3Z</time></trkpt>
<trkpt lat="47.45442200" lon="7.48499603"><ele></ele><time>2014-6-19T4:44:6Z</time></trkpt>
<trkpt lat="47.45438101" lon="7.48479998"><ele></ele><time>2014-6-19T4:44:9Z</time></trkpt>
<trkpt lat="47.45436299" lon="7.48461097"><ele></ele><time>2014-6-19T4:44:12Z</time></trkpt>
<trkpt lat="47.45435301" lon="7.48453100"><ele></ele><time>2014-6-19T4:44:15Z</time></trkpt>
<trkpt lat="47.45430700" lon="7.48433101"><ele></ele><time>2014-6-19T4:44:18Z</time></trkpt>
<trkpt lat="47.45423399" lon="7.48416002"><ele></ele><time>2014-6-19T4:44:21Z</time></trkpt>
<trkpt lat="47.45401204" lon="7.48373003"><ele></ele><time>2014-6-19T4:44:24Z</time></trkpt>
<trkpt lat="47.45379997" lon="7.48326098"><ele></ele><time>2014-6-19T4:44:27Z</time></trkpt>
<trkpt lat="47.45371004" lon="7.48307599"><ele></ele><time>2014-6-19T4:44:30Z</time></trkpt>
<trkpt lat="47.45363301" lon="7.48286200"><ele></ele><time>2014-6-19T4:44:33Z</time></trkpt>
<trkpt lat="47.45346503" lon="7.48238197"><ele></ele><time>2014-6-19T4:44:36Z</time></trkpt>
<trkpt lat="47.45323101" lon="7.48196203"><ele></ele><time>2014-6-19T4:44:39Z</time></trkpt>
<trkpt lat="47.45295499" lon="7.48159197"><ele></ele><time>2014-6-19T4:44:42Z</time></trkpt>
<trkpt lat="47.45271200" lon="7.48120104"><ele></ele><time>2014-6-19T4:44:45Z</time></trkpt>
<trkpt lat="47.45257697" lon="7.48096199"><ele></ele><time>2014-6-19T4:44:48Z</time></trkpt>
<trkpt lat="47.45245904" lon="7.48071900"><ele></ele><time>2014-6-19T4:44:51Z</time></trkpt>
<trkpt lat="47.45236801" lon="7.48052504"><ele></ele><time>2014-6-19T4:44:54Z</time></trkpt>
<trkpt lat="47.45233197" lon="7.48027903"><ele></ele><time>2014-6-19T4:44:57Z</time></trkpt>
<trkpt lat="47.45232903" lon="7.48022698"><ele></ele><time>2014-6-19T4:45:0Z</time></trkpt>
<trkpt lat="47.45233901" lon="7.48014702"><ele></ele><time>2014-6-19T4:45:3Z</time></trkpt>
<trkpt lat="47.45254302" lon="7.47990998"><ele></ele><time>2014-6-19T4:45:6Z</time></trkpt>
<trkpt lat="47.45264797" lon="7.47981702"><ele></ele><time>2014-6-19T4:45:9Z</time></trkpt>
<trkpt lat="47.45270002" lon="7.47976497"><ele></ele><time>2014-6-19T4:45:12Z</time></trkpt>
<trkpt lat="47.45284100" lon="7.47927697"><ele></ele><time>2014-6-19T4:45:15Z</time></trkpt>
<trkpt lat="47.45282197" lon="7.47860097"><ele></ele><time>2014-6-19T4:45:18Z</time></trkpt>
<trkpt lat="47.45272399" lon="7.47799404"><ele></ele><time>2014-6-19T4:45:21Z</time></trkpt>
<trkpt lat="47.45269398" lon="7.47783604"><ele></ele><time>2014-6-19T4:45:24Z</time></trkpt>
<trkpt lat="47.45266498" lon="7.47753203"><ele></ele><time>2014-6-19T4:45:27Z</time></trkpt>
<trkpt lat="47.45265702" lon="7.47745802"><ele></ele><time>2014-6-19T4:45:30Z</time></trkpt>
<trkpt lat="47.45259700" lon="7.47717404"><ele></ele><time>2014-6-19T4:45:33Z</time></trkpt>
<trkpt lat="47.45251704" lon="7.47679601"><ele></ele><time>2014-6-19T4:45:36Z</time></trkpt>
<trkpt lat="47.45246700" lon="7.47659300"><ele></ele><time>2014-6-19T4:45:39Z</time></trkpt>
<trkpt lat="47.45241302" lon="7.47632001"><ele></ele><time>2014-6-19T4:45:42Z</time></trkpt>
<trkpt lat="47.45238704" lon="7.47610803"><ele></ele><time>2014-6-19T4:45:45Z</time></trkpt>
<trkpt lat="47.45228402" lon="7.47563504"><ele></ele><time>2014-6-19T4:45:48Z</time></trkpt>
<trkpt lat="47.45224002" lon="7.47526397"><ele></ele><time>2014-6-19T4:45:51Z</time></trkpt>
<trkpt lat="47.45224999" lon="7.47474798"><ele></ele><time>2014-6-19T4:45:54Z</time></trkpt>
<trkpt lat="47.45224404" lon="7.47459199"><ele></ele><time>2014-6-19T4:45:57Z</time></trkpt>
<trkpt lat="47.45217699" lon="7.47415303"><ele></ele><time>2014-6-19T4:46:0Z</time></trkpt>
<trkpt lat="47.45212401" lon="7.47382698"><ele></ele><time>2014-6-19T4:46:3Z</time></trkpt>
<trkpt lat="47.45210499" lon="7.47374098"><ele></ele><time>2014-6-19T4:46:6Z</time></trkpt>
<trkpt lat="47.45208101" lon="7.47366101"><ele></ele><time>2014-6-19T4:46:9Z</time></trkpt>
<trkpt lat="47.45203801" lon="7.47356999"><ele></ele><time>2014-6-19T4:46:12Z</time></trkpt>
<trkpt lat="47.45201798" lon="7.47351802"><ele></ele><time>2014-6-19T4:46:15Z</time></trkpt>
<trkpt lat="47.45198999" lon="7.47345096"><ele></ele><time>2014-6-19T4:46:18Z</time></trkpt>
<trkpt lat="47.45194598" lon="7.47324997"><ele></ele><time>2014-6-19T4:46:21Z</time></trkpt>
<trkpt lat="47.45192402" lon="7.47316699"><ele></ele><time>2014-6-19T4:46:24Z</time></trkpt>
<trkpt lat="47.45189804" lon="7.47298996"><ele></ele><time>2014-6-19T4:46:27Z</time></trkpt>
<trkpt lat="47.45188496" lon="7.47267799"><ele></ele><time>2014-6-19T4:46:30Z</time></trkpt>
<trkpt lat="47.45188203" lon="7.47262401"><ele></ele><time>2014-6-19T4:46:33Z</time></trkpt>
<trkpt lat="47.45186099" lon="7.47246400"><ele></ele><time>2014-6-19T4:46:36Z</time></trkpt>
<trkpt lat="47.45187901" lon="7.47231698"><ele></ele><time>2014-6-19T4:46:39Z</time></trkpt>
<trkpt lat="47.45191304" lon="7.47176000"><ele></ele><time>2014-6-19T4:46:42Z</time></trkpt>
<trkpt lat="47.45190902" lon="7.47173997"><ele></ele><time>2014-6-19T4:46:45Z</time></trkpt>
<trkpt lat="47.45190499" lon="7.47170099"><ele></ele><time>2014-6-19T4:46:48Z</time></trkpt>
<trkpt lat="47.45190801" lon="7.47156696"><ele></ele><time>2014-6-19T4:46:51Z</time></trkpt>
<trkpt lat="47.45189100" lon="7.47137904"><ele></ele><time>2014-6-19T4:46:54Z</time></trkpt>
<trkpt lat="47.45178798" lon="7.47082902"><ele></ele><time>2014-6-19T4:46:57Z</time></trkpt>
<trkpt lat="47.45175303" lon="7.47068401"><ele></ele><time>2014-6-19T4:47:0Z</time></trkpt>
<trkpt lat="47.45171003" lon="7.47050498"><ele></ele><time>2014-6-19T4:47:3Z</time></trkpt>
<trkpt lat="47.45168497" lon="7.47038604"><ele></ele><time>2014-6-19T4:47:6Z</time></trkpt>
<trkpt lat="47.45167298" lon="7.47021697"><ele></ele><time>2014-6-19T4:47:9Z</time></trkpt>
<trkpt lat="47.45162504" lon="7.46997801"><ele></ele><time>2014-6-19T4:47:12Z</time></trkpt>
<trkpt lat="47.45150702" lon="7.46979604"><ele></ele><time>2014-6-19T4:47:15Z</time></trkpt>
<trkpt lat="47.45146100" lon="7.46965899"><ele></ele><time>2014-6-19T4:47:18Z</time></trkpt>
<trkpt lat="47.45145002" lon="7.46941097"><ele></ele><time>2014-6-19T4:47:21Z</time></trkpt>
<trkpt lat="47.45145103" lon="7.46935900"><ele></ele><time>2014-6-19T4:47:24Z</time></trkpt>
<trkpt lat="47.45141096" lon="7.46916597"><ele></ele><time>2014-6-19T4:47:27Z</time></trkpt>
<trkpt lat="47.45136403" lon="7.46909003"><ele></ele><time>2014-6-19T4:47:30Z</time></trkpt>
<trkpt lat="47.45135497" lon="7.46905298"><ele></ele><time>2014-6-19T4:47:33Z</time></trkpt>
<trkpt lat="47.45130904" lon="7.46899900"><ele></ele><time>2014-6-19T4:47:36Z</time></trkpt>
<trkpt lat="47.45123302" lon="7.46897302"><ele></ele><time>2014-6-19T4:47:39Z</time></trkpt>
<trkpt lat="47.45111399" lon="7.46891803"><ele></ele><time>2014-6-19T4:47:42Z</time></trkpt>
<trkpt lat="47.45105901" lon="7.46885198"><ele></ele><time>2014-6-19T4:47:45Z</time></trkpt>
<trkpt lat="47.45103696" lon="7.46877101"><ele></ele><time>2014-6-19T4:47:48Z</time></trkpt>
<trkpt lat="47.45103604" lon="7.46869499"><ele></ele><time>2014-6-19T4:47:51Z</time></trkpt>
<trkpt lat="47.45102003" lon="7.46857303"><ele></ele><time>2014-6-19T4:47:54Z</time></trkpt>
<trkpt lat="47.45098298" lon="7.46836700"><ele></ele><time>2014-6-19T4:47:57Z</time></trkpt>
<trkpt lat="47.45092196" lon="7.46803500"><ele></ele><time>2014-6-19T4:48:0Z</time></trkpt>
<trkpt lat="47.45084804" lon="7.46766997"><ele></ele><time>2014-6-19T4:48:3Z</time></trkpt>
<trkpt lat="47.45084401" lon="7.46763602"><ele></ele><time>2014-6-19T4:48:6Z</time></trkpt>
<trkpt lat="47.45075600" lon="7.46747098"><ele></ele><time>2014-6-19T4:48:9Z</time></trkpt>
<trkpt lat="47.45075600" lon="7.46739403"><ele></ele><time>2014-6-19T4:48:12Z</time></trkpt>
<trkpt lat="47.45066296" lon="7.46701802"><ele></ele><time>2014-6-19T4:48:15Z</time></trkpt>
<trkpt lat="47.45053003" lon="7.46651301"><ele></ele><time>2014-6-19T4:48:18Z</time></trkpt>
<trkpt lat="47.45048996" lon="7.46612602"><ele></ele><time>2014-6-19T4:48:21Z</time></trkpt>
<trkpt lat="47.45051402" lon="7.46593298"><ele></ele><time>2014-6-19T4:48:24Z</time></trkpt>
<trkpt lat="47.45038301" lon="7.46593902"><ele></ele><time>2014-6-19T4:48:27Z</time></trkpt>
<trkpt lat="47.44970600" lon="7.46545496"><ele></ele><time>2014-6-19T4:48:30Z</time></trkpt>
<trkpt lat="47.44971204" lon="7.46544801"><ele></ele><time>2014-6-19T4:48:33Z</time></trkpt>
<trkpt lat="47.44989904" lon="7.46531398"><ele></ele><time>2014-6-19T4:48:36Z</time></trkpt>
<trkpt lat="47.44997397" lon="7.46529202"><ele></ele><time>2014-6-19T4:48:39Z</time></trkpt>
<trkpt lat="47.44981597" lon="7.46519202"><ele></ele><time>2014-6-19T4:48:42Z</time></trkpt>
<trkpt lat="47.44962604" lon="7.46492003"><ele></ele><time>2014-6-19T4:48:45Z</time></trkpt>
<trkpt lat="47.44936000" lon="7.46455500"><ele></ele><time>2014-6-19T4:48:48Z</time></trkpt>
<trkpt lat="47.44930501" lon="7.46448501"><ele></ele><time>2014-6-19T4:48:51Z</time></trkpt>
<trkpt lat="47.44899496" lon="7.46408997"><ele></ele><time>2014-6-19T4:48:54Z</time></trkpt>
<trkpt lat="47.44880696" lon="7.46389300"><ele></ele><time>2014-6-19T4:48:57Z</time></trkpt>
<trkpt lat="47.44870604" lon="7.46381999"><ele></ele><time>2014-6-19T4:49:0Z</time></trkpt>
<trkpt lat="47.44872096" lon="7.46383499"><ele></ele><time>2014-6-19T4:49:3Z</time></trkpt>
<trkpt lat="47.44881199" lon="7.46381496"><ele></ele><time>2014-6-19T4:49:6Z</time></trkpt>
<trkpt lat="47.44872599" lon="7.46369401"><ele></ele><time>2014-6-19T4:49:9Z</time></trkpt>
<trkpt lat="47.44856497" lon="7.46348304"><ele></ele><time>2014-6-19T4:49:12Z</time></trkpt>
<trkpt lat="47.44841200" lon="7.46329000"><ele></ele><time>2014-6-19T4:49:15Z</time></trkpt>
<trkpt lat="47.44831804" lon="7.46315598"><ele></ele><time>2014-6-19T4:49:18Z</time></trkpt>
<trkpt lat="47.44821704" lon="7.46300904"><ele></ele><time>2014-6-19T4:49:21Z</time></trkpt>
<trkpt lat="47.44798201" lon="7.46256899"><ele></ele><time>2014-6-19T4:49:24Z</time></trkpt>
<trkpt lat="47.44795896" lon="7.46252901"><ele></ele><time>2014-6-19T4:49:27Z</time></trkpt>
<trkpt lat="47.44787204" lon="7.46234997"><ele></ele><time>2014-6-19T4:49:30Z</time></trkpt>
<trkpt lat="47.44775897" lon="7.46212601"><ele></ele><time>2014-6-19T4:49:33Z</time></trkpt>
<trkpt lat="47.44764204" lon="7.46186298"><ele></ele><time>2014-6-19T4:49:36Z</time></trkpt>
<trkpt lat="47.44753601" lon="7.46167297"><ele></ele><time>2014-6-19T4:49:39Z</time></trkpt>
<trkpt lat="47.44745001" lon="7.46149200"><ele></ele><time>2014-6-19T4:49:42Z</time></trkpt>
<trkpt lat="47.44717802" lon="7.46110903"><ele></ele><time>2014-6-19T4:49:45Z</time></trkpt>
<trkpt lat="47.44690703" lon="7.46073201"><ele></ele><time>2014-6-19T4:49:48Z</time></trkpt>
<trkpt lat="47.44680796" lon="7.46065297"><ele></ele><time>2014-6-19T4:49:51Z</time></trkpt>
<trkpt lat="47.44662498" lon="7.46069304"><ele></ele><time>2014-6-19T4:49:54Z</time></trkpt>
<trkpt lat="47.44647201" lon="7.46074702"><ele></ele><time>2014-6-19T4:49:57Z</time></trkpt>
<trkpt lat="47.44641703" lon="7.46074098"><ele></ele><time>2014-6-19T4:50:0Z</time></trkpt>
<trkpt lat="47.44629499" lon="7.46071500"><ele></ele><time>2014-6-19T4:50:3Z</time></trkpt>
<trkpt lat="47.44619398" lon="7.46066504"><ele></ele><time>2014-6-19T4:50:6Z</time></trkpt>
<trkpt lat="47.44610899" lon="7.46065004"><ele></ele><time>2014-6-19T4:50:9Z</time></trkpt>
<trkpt lat="47.44602702" lon="7.46062003"><ele></ele><time>2014-6-19T4:50:12Z</time></trkpt>
<trkpt lat="47.44593398" lon="7.46055800"><ele></ele><time>2014-6-19T4:50:15Z</time></trkpt>
<trkpt lat="47.44574597" lon="7.46036698"><ele></ele><time>2014-6-19T4:50:18Z</time></trkpt>
<trkpt lat="47.44549200" lon="7.45998703"><ele></ele><time>2014-6-19T4:50:21Z</time></trkpt>
<trkpt lat="47.44522998" lon="7.45960297"><ele></ele><time>2014-6-19T4:50:24Z</time></trkpt>
<trkpt lat="47.44499504" lon="7.45918597"><ele></ele><time>2014-6-19T4:50:27Z</time></trkpt>
<trkpt lat="47.44472698" lon="7.45916803"><ele></ele><time>2014-6-19T4:50:30Z</time></trkpt>
<trkpt lat="47.44476898" lon="7.45922201"><ele></ele><time>2014-6-19T4:50:33Z</time></trkpt>
<trkpt lat="47.44478901" lon="7.45930499"><ele></ele><time>2014-6-19T4:50:36Z</time></trkpt>
<trkpt lat="47.44484902" lon="7.45946299"><ele></ele><time>2014-6-19T4:50:39Z</time></trkpt>
<trkpt lat="47.44500702" lon="7.45982702"><ele></ele><time>2014-6-19T4:50:42Z</time></trkpt>
<trkpt lat="47.44518204" lon="7.46017403"><ele></ele><time>2014-6-19T4:50:45Z</time></trkpt>
<trkpt lat="47.44524800" lon="7.46031099"><ele></ele><time>2014-6-19T4:50:48Z</time></trkpt>
<trkpt lat="47.44530198" lon="7.46044996"><ele></ele><time>2014-6-19T4:50:51Z</time></trkpt>
<trkpt lat="47.44532696" lon="7.46050796"><ele></ele><time>2014-6-19T4:50:54Z</time></trkpt>
<trkpt lat="47.44539401" lon="7.46070301"><ele></ele><time>2014-6-19T4:50:57Z</time></trkpt>
<trkpt lat="47.44538102" lon="7.46120400"><ele></ele><time>2014-6-19T4:51:0Z</time></trkpt>
<trkpt lat="47.44530902" lon="7.46138899"><ele></ele><time>2014-6-19T4:51:3Z</time></trkpt>
<trkpt lat="47.44524800" lon="7.46150600"><ele></ele><time>2014-6-19T4:51:6Z</time></trkpt>
<trkpt lat="47.44497299" lon="7.46196600"><ele></ele><time>2014-6-19T4:51:9Z</time></trkpt>
<trkpt lat="47.44493502" lon="7.46203900"><ele></ele><time>2014-6-19T4:51:12Z</time></trkpt>
<trkpt lat="47.44463797" lon="7.46252096"><ele></ele><time>2014-6-19T4:51:15Z</time></trkpt>
<trkpt lat="47.44455096" lon="7.46266102"><ele></ele><time>2014-6-19T4:51:18Z</time></trkpt>
<trkpt lat="47.44437796" lon="7.46299203"><ele></ele><time>2014-6-19T4:51:21Z</time></trkpt>
<trkpt lat="47.44428400" lon="7.46318104"><ele></ele><time>2014-6-19T4:51:24Z</time></trkpt>
<trkpt lat="47.44421502" lon="7.46356702"><ele></ele><time>2014-6-19T4:51:27Z</time></trkpt>
<trkpt lat="47.44420798" lon="7.46364900"><ele></ele><time>2014-6-19T4:51:30Z</time></trkpt>
<trkpt lat="47.44416799" lon="7.46437898"><ele></ele><time>2014-6-19T4:51:33Z</time></trkpt>
<trkpt lat="47.44415400" lon="7.46475399"><ele></ele><time>2014-6-19T4:51:36Z</time></trkpt>
<trkpt lat="47.44411603" lon="7.46535103"><ele></ele><time>2014-6-19T4:51:39Z</time></trkpt>
<trkpt lat="47.44410999" lon="7.46546997"><ele></ele><time>2014-6-19T4:51:42Z</time></trkpt>
<trkpt lat="47.44411401" lon="7.46597498"><ele></ele><time>2014-6-19T4:51:45Z</time></trkpt>
<trkpt lat="47.44411200" lon="7.46638997"><ele></ele><time>2014-6-19T4:51:48Z</time></trkpt>
<trkpt lat="47.44412600" lon="7.46697804"><ele></ele><time>2014-6-19T4:51:51Z</time></trkpt>
<trkpt lat="47.44410999" lon="7.46754097"><ele></ele><time>2014-6-19T4:51:54Z</time></trkpt>
<trkpt lat="47.44410899" lon="7.46766603"><ele></ele><time>2014-6-19T4:51:57Z</time></trkpt>
<trkpt lat="47.44410697" lon="7.46820498"><ele></ele><time>2014-6-19T4:52:0Z</time></trkpt>
<trkpt lat="47.44410899" lon="7.46881904"><ele></ele><time>2014-6-19T4:52:3Z</time></trkpt>
<trkpt lat="47.44410203" lon="7.46905399"><ele></ele><time>2014-6-19T4:52:6Z</time></trkpt>
<trkpt lat="47.44413103" lon="7.46969000"><ele></ele><time>2014-6-19T4:52:9Z</time></trkpt>
<trkpt lat="47.44414704" lon="7.46993400"><ele></ele><time>2014-6-19T4:52:12Z</time></trkpt>
<trkpt lat="47.44418199" lon="7.47017900"><ele></ele><time>2014-6-19T4:52:15Z</time></trkpt>
<trkpt lat="47.44426003" lon="7.47070698"><ele></ele><time>2014-6-19T4:52:18Z</time></trkpt>
<trkpt lat="47.44433898" lon="7.47122498"><ele></ele><time>2014-6-19T4:52:21Z</time></trkpt>
<trkpt lat="47.44443999" lon="7.47181599"><ele></ele><time>2014-6-19T4:52:24Z</time></trkpt>
<trkpt lat="47.44455700" lon="7.47237297"><ele></ele><time>2014-6-19T4:52:27Z</time></trkpt>
<trkpt lat="47.44467401" lon="7.47289499"><ele></ele><time>2014-6-19T4:52:30Z</time></trkpt>
<trkpt lat="47.44469203" lon="7.47299197"><ele></ele><time>2014-6-19T4:52:33Z</time></trkpt>
<trkpt lat="47.44470804" lon="7.47316900"><ele></ele><time>2014-6-19T4:52:36Z</time></trkpt>
<trkpt lat="47.44457100" lon="7.47342498"><ele></ele><time>2014-6-19T4:52:39Z</time></trkpt>
<trkpt lat="47.44442599" lon="7.47347301"><ele></ele><time>2014-6-19T4:52:42Z</time></trkpt>
<trkpt lat="47.44435801" lon="7.47347100"><ele></ele><time>2014-6-19T4:52:45Z</time></trkpt>
<trkpt lat="47.44400396" lon="7.47322197"><ele></ele><time>2014-6-19T4:52:48Z</time></trkpt>
<trkpt lat="47.44379500" lon="7.47303698"><ele></ele><time>2014-6-19T4:52:51Z</time></trkpt>
<trkpt lat="47.44363097" lon="7.47274504"><ele></ele><time>2014-6-19T4:52:54Z</time></trkpt>
<trkpt lat="47.44346098" lon="7.47211204"><ele></ele><time>2014-6-19T4:52:57Z</time></trkpt>
<trkpt lat="47.44332503" lon="7.47160502"><ele></ele><time>2014-6-19T4:53:0Z</time></trkpt>
<trkpt lat="47.44318002" lon="7.47107302"><ele></ele><time>2014-6-19T4:53:3Z</time></trkpt>
<trkpt lat="47.44301699" lon="7.47055803"><ele></ele><time>2014-6-19T4:53:6Z</time></trkpt>
<trkpt lat="47.44286997" lon="7.47007499"><ele></ele><time>2014-6-19T4:53:9Z</time></trkpt>
<trkpt lat="47.44273502" lon="7.46953804"><ele></ele><time>2014-6-19T4:53:12Z</time></trkpt>
<trkpt lat="47.44258700" lon="7.46901903"><ele></ele><time>2014-6-19T4:53:15Z</time></trkpt>
<trkpt lat="47.44246798" lon="7.46870496"><ele></ele><time>2014-6-19T4:53:18Z</time></trkpt>
<trkpt lat="47.44216103" lon="7.46825502"><ele></ele><time>2014-6-19T4:53:21Z</time></trkpt>
<trkpt lat="47.44192399" lon="7.46777499"><ele></ele><time>2014-6-19T4:53:24Z</time></trkpt>
<trkpt lat="47.44167496" lon="7.46729102"><ele></ele><time>2014-6-19T4:53:27Z</time></trkpt>
<trkpt lat="47.44142401" lon="7.46677998"><ele></ele><time>2014-6-19T4:53:30Z</time></trkpt>
<trkpt lat="47.44121203" lon="7.46632601"><ele></ele><time>2014-6-19T4:53:33Z</time></trkpt>
<trkpt lat="47.44109603" lon="7.46591496"><ele></ele><time>2014-6-19T4:53:36Z</time></trkpt>
<trkpt lat="47.44103199" lon="7.46550098"><ele></ele><time>2014-6-19T4:53:39Z</time></trkpt>
<trkpt lat="47.44101204" lon="7.46529898"><ele></ele><time>2014-6-19T4:53:42Z</time></trkpt>
<trkpt lat="47.44102897" lon="7.46481199"><ele></ele><time>2014-6-19T4:53:45Z</time></trkpt>
<trkpt lat="47.44101598" lon="7.46440697"><ele></ele><time>2014-6-19T4:53:48Z</time></trkpt>
<trkpt lat="47.44099201" lon="7.46429399"><ele></ele><time>2014-6-19T4:53:51Z</time></trkpt>
<trkpt lat="47.44094398" lon="7.46408603"><ele></ele><time>2014-6-19T4:53:54Z</time></trkpt>
<trkpt lat="47.44072203" lon="7.46382502"><ele></ele><time>2014-6-19T4:53:57Z</time></trkpt>
<trkpt lat="47.44055397" lon="7.46387598"><ele></ele><time>2014-6-19T4:54:0Z</time></trkpt>
<trkpt lat="47.44020201" lon="7.46397698"><ele></ele><time>2014-6-19T4:54:3Z</time></trkpt>
<trkpt lat="47.43979800" lon="7.46441402"><ele></ele><time>2014-6-19T4:54:6Z</time></trkpt>
<trkpt lat="47.43958703" lon="7.46479698"><ele></ele><time>2014-6-19T4:54:9Z</time></trkpt>
<trkpt lat="47.43941998" lon="7.46497300"><ele></ele><time>2014-6-19T4:54:12Z</time></trkpt>
<trkpt lat="47.43926098" lon="7.46466396"><ele></ele><time>2014-6-19T4:54:15Z</time></trkpt>
<trkpt lat="47.43925896" lon="7.46432902"><ele></ele><time>2014-6-19T4:54:18Z</time></trkpt>
<trkpt lat="47.43923600" lon="7.46371396"><ele></ele><time>2014-6-19T4:54:21Z</time></trkpt>
<trkpt lat="47.43919400" lon="7.46335203"><ele></ele><time>2014-6-19T4:54:24Z</time></trkpt>
<trkpt lat="47.43925704" lon="7.46302002"><ele></ele><time>2014-6-19T4:54:27Z</time></trkpt>
<trkpt lat="47.43946902" lon="7.46244603"><ele></ele><time>2014-6-19T4:54:30Z</time></trkpt>
<trkpt lat="47.43971704" lon="7.46195703"><ele></ele><time>2014-6-19T4:54:33Z</time></trkpt>
<trkpt lat="47.43981804" lon="7.46175201"><ele></ele><time>2014-6-19T4:54:36Z</time></trkpt>
<trkpt lat="47.43961503" lon="7.46136099"><ele></ele><time>2014-6-19T4:54:39Z</time></trkpt>
<trkpt lat="47.43929199" lon="7.46156702"><ele></ele><time>2014-6-19T4:54:42Z</time></trkpt>
<trkpt lat="47.43893500" lon="7.46201897"><ele></ele><time>2014-6-19T4:54:45Z</time></trkpt>
<trkpt lat="47.43862404" lon="7.46239096"><ele></ele><time>2014-6-19T4:54:48Z</time></trkpt>
<trkpt lat="47.43829999" lon="7.46278700"><ele></ele><time>2014-6-19T4:54:51Z</time></trkpt>
<trkpt lat="47.43815599" lon="7.46295900"><ele></ele><time>2014-6-19T4:54:54Z</time></trkpt>
<trkpt lat="47.43801702" lon="7.46323301"><ele></ele><time>2014-6-19T4:54:57Z</time></trkpt>
<trkpt lat="47.43779800" lon="7.46384597"><ele></ele><time>2014-6-19T4:55:0Z</time></trkpt>
<trkpt lat="47.43756901" lon="7.46433296"><ele></ele><time>2014-6-19T4:55:3Z</time></trkpt>
<trkpt lat="47.43737899" lon="7.46480998"><ele></ele><time>2014-6-19T4:55:6Z</time></trkpt>
<trkpt lat="47.43730204" lon="7.46502799"><ele></ele><time>2014-6-19T4:55:9Z</time></trkpt>
<trkpt lat="47.43708101" lon="7.46562101"><ele></ele><time>2014-6-19T4:55:12Z</time></trkpt>
<trkpt lat="47.43689502" lon="7.46611001"><ele></ele><time>2014-6-19T4:55:15Z</time></trkpt>
<trkpt lat="47.43674104" lon="7.46651804"><ele></ele><time>2014-6-19T4:55:18Z</time></trkpt>
<trkpt lat="47.43659201" lon="7.46691098"><ele></ele><time>2014-6-19T4:55:21Z</time></trkpt>
<trkpt lat="47.43643401" lon="7.46731600"><ele></ele><time>2014-6-19T4:55:24Z</time></trkpt>
<trkpt lat="47.43614500" lon="7.46768304"><ele></ele><time>2014-6-19T4:55:27Z</time></trkpt>
<trkpt lat="47.43601802" lon="7.46774197"><ele></ele><time>2014-6-19T4:55:30Z</time></trkpt>
<trkpt lat="47.43582498" lon="7.46777700"><ele></ele><time>2014-6-19T4:55:33Z</time></trkpt>
<trkpt lat="47.43545400" lon="7.46790801"><ele></ele><time>2014-6-19T4:55:36Z</time></trkpt>
<trkpt lat="47.43514404" lon="7.46805696"><ele></ele><time>2014-6-19T4:55:39Z</time></trkpt>
<trkpt lat="47.43478504" lon="7.46833398"><ele></ele><time>2014-6-19T4:55:42Z</time></trkpt>
<trkpt lat="47.43456200" lon="7.46854696"><ele></ele><time>2014-6-19T4:55:45Z</time></trkpt>
<trkpt lat="47.43429202" lon="7.46885098"><ele></ele><time>2014-6-19T4:55:48Z</time></trkpt>
<trkpt lat="47.43421096" lon="7.46894896"><ele></ele><time>2014-6-19T4:55:51Z</time></trkpt>
<trkpt lat="47.43419001" lon="7.46896103"><ele></ele><time>2014-6-19T4:55:54Z</time></trkpt>
<trkpt lat="47.43415497" lon="7.46901300"><ele></ele><time>2014-6-19T4:55:57Z</time></trkpt>
<trkpt lat="47.43414399" lon="7.46904301"><ele></ele><time>2014-6-19T4:56:0Z</time></trkpt>
<trkpt lat="47.43412698" lon="7.46905499"><ele></ele><time>2014-6-19T4:56:3Z</time></trkpt>
<trkpt lat="47.43403201" lon="7.46911501"><ele></ele><time>2014-6-19T4:56:6Z</time></trkpt>
<trkpt lat="47.43379204" lon="7.46943503"><ele></ele><time>2014-6-19T4:56:9Z</time></trkpt>
<trkpt lat="47.43347101" lon="7.46983903"><ele></ele><time>2014-6-19T4:56:12Z</time></trkpt>
<trkpt lat="47.43311201" lon="7.47019803"><ele></ele><time>2014-6-19T4:56:15Z</time></trkpt>
<trkpt lat="47.43278797" lon="7.47050104"><ele></ele><time>2014-6-19T4:56:18Z</time></trkpt>
<trkpt lat="47.43243601" lon="7.47082097"><ele></ele><time>2014-6-19T4:56:21Z</time></trkpt>
<trkpt lat="47.43225203" lon="7.47098300"><ele></ele><time>2014-6-19T4:56:24Z</time></trkpt>
<trkpt lat="47.43186504" lon="7.47126496"><ele></ele><time>2014-6-19T4:56:27Z</time></trkpt>
<trkpt lat="47.43144996" lon="7.47146403"><ele></ele><time>2014-6-19T4:56:30Z</time></trkpt>
<trkpt lat="47.43102400" lon="7.47161700"><ele></ele><time>2014-6-19T4:56:33Z</time></trkpt>
<trkpt lat="47.43060901" lon="7.47179302"><ele></ele><time>2014-6-19T4:56:36Z</time></trkpt>
<trkpt lat="47.43020701" lon="7.47204800"><ele></ele><time>2014-6-19T4:56:39Z</time></trkpt>
<trkpt lat="47.42979596" lon="7.47239501"><ele></ele><time>2014-6-19T4:56:42Z</time></trkpt>
<trkpt lat="47.42947100" lon="7.47268301"><ele></ele><time>2014-6-19T4:56:45Z</time></trkpt>
<trkpt lat="47.42913002" lon="7.47296699"><ele></ele><time>2014-6-19T4:56:48Z</time></trkpt>
<trkpt lat="47.42879600" lon="7.47321803"><ele></ele><time>2014-6-19T4:56:51Z</time></trkpt>
<trkpt lat="47.42842100" lon="7.47346002"><ele></ele><time>2014-6-19T4:56:54Z</time></trkpt>
<trkpt lat="47.42805001" lon="7.47360704"><ele></ele><time>2014-6-19T4:56:57Z</time></trkpt>
<trkpt lat="47.42766696" lon="7.47362296"><ele></ele><time>2014-6-19T4:57:0Z</time></trkpt>
<trkpt lat="47.42738902" lon="7.47356697"><ele></ele><time>2014-6-19T4:57:3Z</time></trkpt>
<trkpt lat="47.42696799" lon="7.47323203"><ele></ele><time>2014-6-19T4:57:6Z</time></trkpt>
<trkpt lat="47.42690203" lon="7.47313103"><ele></ele><time>2014-6-19T4:57:9Z</time></trkpt>
<trkpt lat="47.42659399" lon="7.47265100"><ele></ele><time>2014-6-19T4:57:12Z</time></trkpt>
<trkpt lat="47.42618001" lon="7.47262099"><ele></ele><time>2014-6-19T4:57:15Z</time></trkpt>
<trkpt lat="47.42608303" lon="7.47282903"><ele></ele><time>2014-6-19T4:57:18Z</time></trkpt>
<trkpt lat="47.42589997" lon="7.47340201"><ele></ele><time>2014-6-19T4:57:21Z</time></trkpt>
<trkpt lat="47.42576703" lon="7.47391096"><ele></ele><time>2014-6-19T4:57:24Z</time></trkpt>
<trkpt lat="47.42562697" lon="7.47441698"><ele></ele><time>2014-6-19T4:57:27Z</time></trkpt>
<trkpt lat="47.42549596" lon="7.47470196"><ele></ele><time>2014-6-19T4:57:30Z</time></trkpt>
<trkpt lat="47.42526999" lon="7.47513103"><ele></ele><time>2014-6-19T4:57:33Z</time></trkpt>
<trkpt lat="47.42503898" lon="7.47553596"><ele></ele><time>2014-6-19T4:57:36Z</time></trkpt>
<trkpt lat="47.42475903" lon="7.47593000"><ele></ele><time>2014-6-19T4:57:39Z</time></trkpt>
<trkpt lat="47.42453598" lon="7.47634901"><ele></ele><time>2014-6-19T4:57:42Z</time></trkpt>
<trkpt lat="47.42441403" lon="7.47662896"><ele></ele><time>2014-6-19T4:57:45Z</time></trkpt>
<trkpt lat="47.42419601" lon="7.47716499"><ele></ele><time>2014-6-19T4:57:48Z</time></trkpt>
<trkpt lat="47.42398404" lon="7.47767704"><ele></ele><time>2014-6-19T4:57:51Z</time></trkpt>
<trkpt lat="47.42379502" lon="7.47813201"><ele></ele><time>2014-6-19T4:57:54Z</time></trkpt>
<trkpt lat="47.42361004" lon="7.47861698"><ele></ele><time>2014-6-19T4:57:57Z</time></trkpt>
<trkpt lat="47.42352798" lon="7.47886903"><ele></ele><time>2014-6-19T4:58:0Z</time></trkpt>
<trkpt lat="47.42349604" lon="7.47898696"><ele></ele><time>2014-6-19T4:58:3Z</time></trkpt>
<trkpt lat="47.42346201" lon="7.47910104"><ele></ele><time>2014-6-19T4:58:6Z</time></trkpt>
<trkpt lat="47.42333000" lon="7.47968802"><ele></ele><time>2014-6-19T4:58:9Z</time></trkpt>
<trkpt lat="47.42321902" lon="7.48023603"><ele></ele><time>2014-6-19T4:58:12Z</time></trkpt>
<trkpt lat="47.42313897" lon="7.48075504"><ele></ele><time>2014-6-19T4:58:15Z</time></trkpt>
<trkpt lat="47.42304803" lon="7.48128997"><ele></ele><time>2014-6-19T4:58:18Z</time></trkpt>
<trkpt lat="47.42297301" lon="7.48181300"><ele></ele><time>2014-6-19T4:58:21Z</time></trkpt>
<trkpt lat="47.42289900" lon="7.48234802"><ele></ele><time>2014-6-19T4:58:24Z</time></trkpt>
<trkpt lat="47.42285399" lon="7.48293199"><ele></ele><time>2014-6-19T4:58:27Z</time></trkpt>
<trkpt lat="47.42281401" lon="7.48354998"><ele></ele><time>2014-6-19T4:58:30Z</time></trkpt>
<trkpt lat="47.42278500" lon="7.48418600"><ele></ele><time>2014-6-19T4:58:33Z</time></trkpt>
<trkpt lat="47.42279498" lon="7.48477399"><ele></ele><time>2014-6-19T4:58:36Z</time></trkpt>
<trkpt lat="47.42285399" lon="7.48532200"><ele></ele><time>2014-6-19T4:58:39Z</time></trkpt>
<trkpt lat="47.42290998" lon="7.48594402"><ele></ele><time>2014-6-19T4:58:42Z</time></trkpt>
<trkpt lat="47.42289498" lon="7.48661097"><ele></ele><time>2014-6-19T4:58:45Z</time></trkpt>
<trkpt lat="47.42282800" lon="7.48724598"><ele></ele><time>2014-6-19T4:58:48Z</time></trkpt>
<trkpt lat="47.42276296" lon="7.48786901"><ele></ele><time>2014-6-19T4:58:51Z</time></trkpt>
<trkpt lat="47.42275097" lon="7.48852397"><ele></ele><time>2014-6-19T4:58:54Z</time></trkpt>
<trkpt lat="47.42275701" lon="7.48922696"><ele></ele><time>2014-6-19T4:58:57Z</time></trkpt>
<trkpt lat="47.42276103" lon="7.48992803"><ele></ele><time>2014-6-19T4:59:0Z</time></trkpt>
<trkpt lat="47.42276204" lon="7.49060897"><ele></ele><time>2014-6-19T4:59:3Z</time></trkpt>
<trkpt lat="47.42272197" lon="7.49129000"><ele></ele><time>2014-6-19T4:59:6Z</time></trkpt>
<trkpt lat="47.42262701" lon="7.49196298"><ele></ele><time>2014-6-19T4:59:9Z</time></trkpt>
<trkpt lat="47.42248602" lon="7.49260403"><ele></ele><time>2014-6-19T4:59:12Z</time></trkpt>
<trkpt lat="47.42228896" lon="7.49319898"><ele></ele><time>2014-6-19T4:59:15Z</time></trkpt>
<trkpt lat="47.42214798" lon="7.49359896"><ele></ele><time>2014-6-19T4:59:18Z</time></trkpt>
<trkpt lat="47.42200901" lon="7.49414597"><ele></ele><time>2014-6-19T4:59:21Z</time></trkpt>
<trkpt lat="47.42196299" lon="7.49476003"><ele></ele><time>2014-6-19T4:59:24Z</time></trkpt>
<trkpt lat="47.42192896" lon="7.49534600"><ele></ele><time>2014-6-19T4:59:27Z</time></trkpt>
<trkpt lat="47.42176702" lon="7.49589996"><ele></ele><time>2014-6-19T4:59:30Z</time></trkpt>
<trkpt lat="47.42159100" lon="7.49624496"><ele></ele><time>2014-6-19T4:59:33Z</time></trkpt>
<trkpt lat="47.42148003" lon="7.49663397"><ele></ele><time>2014-6-19T4:59:36Z</time></trkpt>
<trkpt lat="47.42143401" lon="7.49735397"><ele></ele><time>2014-6-19T4:59:39Z</time></trkpt>
<trkpt lat="47.42143099" lon="7.49749504"><ele></ele><time>2014-6-19T4:59:42Z</time></trkpt>
<trkpt lat="47.42140501" lon="7.49804900"><ele></ele><time>2014-6-19T4:59:45Z</time></trkpt>
<trkpt lat="47.42137198" lon="7.49866901"><ele></ele><time>2014-6-19T4:59:48Z</time></trkpt>
<trkpt lat="47.42134902" lon="7.49922599"><ele></ele><time>2014-6-19T4:59:51Z</time></trkpt>
<trkpt lat="47.42133996" lon="7.49936102"><ele></ele><time>2014-6-19T4:59:54Z</time></trkpt>
<trkpt lat="47.42133401" lon="7.49939597"><ele></ele><time>2014-6-19T4:59:57Z</time></trkpt>
<trkpt lat="47.42131599" lon="7.49941098"><ele></ele><time>2014-6-19T5:0:0Z</time></trkpt>
<trkpt lat="47.42130904" lon="7.49941299"><ele></ele><time>2014-6-19T5:0:3Z</time></trkpt>
<trkpt lat="47.42129697" lon="7.49940997"><ele></ele><time>2014-6-19T5:0:6Z</time></trkpt>
<trkpt lat="47.42125397" lon="7.49949697"><ele></ele><time>2014-6-19T5:0:9Z</time></trkpt>
<trkpt lat="47.42123301" lon="7.49952396"><ele></ele><time>2014-6-19T5:0:12Z</time></trkpt>
<trkpt lat="47.42108800" lon="7.49964902"><ele></ele><time>2014-6-19T5:0:15Z</time></trkpt>
<trkpt lat="47.42097904" lon="7.49974097"><ele></ele><time>2014-6-19T5:0:18Z</time></trkpt>
<trkpt lat="47.42065801" lon="7.49999603"><ele></ele><time>2014-6-19T5:0:21Z</time></trkpt>
<trkpt lat="47.42043003" lon="7.50023299"><ele></ele><time>2014-6-19T5:0:24Z</time></trkpt>
<trkpt lat="47.42027203" lon="7.50031102"><ele></ele><time>2014-6-19T5:0:27Z</time></trkpt>
<trkpt lat="47.42027102" lon="7.50032402"><ele></ele><time>2014-6-19T5:0:30Z</time></trkpt>
<trkpt lat="47.42027496" lon="7.50041697"><ele></ele><time>2014-6-19T5:0:33Z</time></trkpt>
</trkseg></trk></gpx>